<?xml version="1.0" encoding="UTF-8" standalone="no" ?>
<gpx xmlns="http://www.topografix.com/GPX/1/1" xmlns:xsi="http://www.w3.org/2001/XMLSchema-instance" xsi:schemaLocation="http://www.topografix.com/GPX/1/1 http://www.topografix.com/GPX/1/1/gpx.xsd" version="1.1" creator="VisuGPX - https://www.visugpx.com">
  <metadata>
    <name>Loudéac voie verte et Rigoled'Hilvern</name>
  </metadata>
  <trk>
    <name><![CDATA[Loudéac voie verte et Rigoled'Hilvern_1]]></name>
    <trkseg>
      <trkpt lat="48.18242" lon="-2.77328">
        <ele>167.335938</ele>
        <time>2019-07-17T14:38:10Z</time>
      </trkpt>
      <trkpt lat="48.18239" lon="-2.77326">
        <ele>169.835938</ele>
        <time>2019-07-17T14:00:42Z</time>
      </trkpt>
      <trkpt lat="48.18239" lon="-2.77326">
        <ele>169.992188</ele>
        <time>2019-07-17T14:00:40Z</time>
      </trkpt>
      <trkpt lat="48.18268" lon="-2.77328">
        <ele>168.039063</ele>
        <time>2019-07-17T13:59:49Z</time>
      </trkpt>
      <trkpt lat="48.18283" lon="-2.77323">
        <ele>167.898438</ele>
        <time>2019-07-17T13:59:28Z</time>
      </trkpt>
      <trkpt lat="48.18288" lon="-2.77311">
        <ele>168.5</ele>
        <time>2019-07-17T13:59:22Z</time>
      </trkpt>
      <trkpt lat="48.18286" lon="-2.77297">
        <ele>168.597656</ele>
        <time>2019-07-17T13:59:18Z</time>
      </trkpt>
      <trkpt lat="48.18274" lon="-2.77257">
        <ele>167.398438</ele>
        <time>2019-07-17T13:59:08Z</time>
      </trkpt>
      <trkpt lat="48.18271" lon="-2.77245">
        <ele>167.097656</ele>
        <time>2019-07-17T13:59:05Z</time>
      </trkpt>
      <trkpt lat="48.18265" lon="-2.7723">
        <ele>166.699219</ele>
        <time>2019-07-17T13:59:01Z</time>
      </trkpt>
      <trkpt lat="48.18261" lon="-2.77217">
        <ele>166.199219</ele>
        <time>2019-07-17T13:58:57Z</time>
      </trkpt>
      <trkpt lat="48.18255" lon="-2.77205">
        <ele>165.597656</ele>
        <time>2019-07-17T13:58:53Z</time>
      </trkpt>
      <trkpt lat="48.18244" lon="-2.77204">
        <ele>164.199219</ele>
        <time>2019-07-17T13:58:49Z</time>
      </trkpt>
      <trkpt lat="48.18224" lon="-2.77213">
        <ele>162.398438</ele>
        <time>2019-07-17T13:58:41Z</time>
      </trkpt>
      <trkpt lat="48.18214" lon="-2.77219">
        <ele>161.097656</ele>
        <time>2019-07-17T13:58:37Z</time>
      </trkpt>
      <trkpt lat="48.18205" lon="-2.77228">
        <ele>159.796875</ele>
        <time>2019-07-17T13:58:33Z</time>
      </trkpt>
      <trkpt lat="48.18117" lon="-2.77385">
        <ele>153.898438</ele>
        <time>2019-07-17T13:57:54Z</time>
      </trkpt>
      <trkpt lat="48.1809" lon="-2.77431">
        <ele>153.296875</ele>
        <time>2019-07-17T13:57:42Z</time>
      </trkpt>
      <trkpt lat="48.18079" lon="-2.77456">
        <ele>152</ele>
        <time>2019-07-17T13:57:36Z</time>
      </trkpt>
      <trkpt lat="48.18073" lon="-2.77469">
        <ele>152</ele>
        <time>2019-07-17T13:57:33Z</time>
      </trkpt>
      <trkpt lat="48.18052" lon="-2.77502">
        <ele>151.898438</ele>
        <time>2019-07-17T13:57:24Z</time>
      </trkpt>
      <trkpt lat="48.17951" lon="-2.77688">
        <ele>152</ele>
        <time>2019-07-17T13:56:35Z</time>
      </trkpt>
      <trkpt lat="48.17945" lon="-2.777">
        <ele>151.796875</ele>
        <time>2019-07-17T13:56:32Z</time>
      </trkpt>
      <trkpt lat="48.17939" lon="-2.77713">
        <ele>152</ele>
        <time>2019-07-17T13:56:29Z</time>
      </trkpt>
      <trkpt lat="48.17932" lon="-2.77725">
        <ele>152.097656</ele>
        <time>2019-07-17T13:56:26Z</time>
      </trkpt>
      <trkpt lat="48.17899" lon="-2.77787">
        <ele>150.296875</ele>
        <time>2019-07-17T13:56:11Z</time>
      </trkpt>
      <trkpt lat="48.17893" lon="-2.77799">
        <ele>149.796875</ele>
        <time>2019-07-17T13:56:08Z</time>
      </trkpt>
      <trkpt lat="48.17888" lon="-2.77814">
        <ele>149</ele>
        <time>2019-07-17T13:56:04Z</time>
      </trkpt>
      <trkpt lat="48.17889" lon="-2.77827">
        <ele>147.699219</ele>
        <time>2019-07-17T13:56:01Z</time>
      </trkpt>
      <trkpt lat="48.17895" lon="-2.77838">
        <ele>147.097656</ele>
        <time>2019-07-17T13:55:58Z</time>
      </trkpt>
      <trkpt lat="48.17902" lon="-2.77848">
        <ele>147.199219</ele>
        <time>2019-07-17T13:55:55Z</time>
      </trkpt>
      <trkpt lat="48.17909" lon="-2.77858">
        <ele>146.699219</ele>
        <time>2019-07-17T13:55:52Z</time>
      </trkpt>
      <trkpt lat="48.17915" lon="-2.7787">
        <ele>146.398438</ele>
        <time>2019-07-17T13:55:49Z</time>
      </trkpt>
      <trkpt lat="48.1792" lon="-2.77882">
        <ele>146.097656</ele>
        <time>2019-07-17T13:55:46Z</time>
      </trkpt>
      <trkpt lat="48.17922" lon="-2.77898">
        <ele>145.597656</ele>
        <time>2019-07-17T13:55:43Z</time>
      </trkpt>
      <trkpt lat="48.17919" lon="-2.77917">
        <ele>146.296875</ele>
        <time>2019-07-17T13:55:39Z</time>
      </trkpt>
      <trkpt lat="48.17913" lon="-2.77933">
        <ele>147.5</ele>
        <time>2019-07-17T13:55:36Z</time>
      </trkpt>
      <trkpt lat="48.17904" lon="-2.77938">
        <ele>148</ele>
        <time>2019-07-17T13:55:34Z</time>
      </trkpt>
      <trkpt lat="48.17895" lon="-2.77933">
        <ele>148.199219</ele>
        <time>2019-07-17T13:55:32Z</time>
      </trkpt>
      <trkpt lat="48.17887" lon="-2.77917">
        <ele>148.597656</ele>
        <time>2019-07-17T13:55:29Z</time>
      </trkpt>
      <trkpt lat="48.17879" lon="-2.77907">
        <ele>149.097656</ele>
        <time>2019-07-17T13:55:25Z</time>
      </trkpt>
      <trkpt lat="48.17858" lon="-2.77897">
        <ele>147.597656</ele>
        <time>2019-07-17T13:55:17Z</time>
      </trkpt>
      <trkpt lat="48.17847" lon="-2.77891">
        <ele>146.296875</ele>
        <time>2019-07-17T13:55:13Z</time>
      </trkpt>
      <trkpt lat="48.17838" lon="-2.77895">
        <ele>145.097656</ele>
        <time>2019-07-17T13:55:10Z</time>
      </trkpt>
      <trkpt lat="48.17761" lon="-2.78028">
        <ele>146.699219</ele>
        <time>2019-07-17T13:54:37Z</time>
      </trkpt>
      <trkpt lat="48.17746" lon="-2.78052">
        <ele>146.796875</ele>
        <time>2019-07-17T13:54:31Z</time>
      </trkpt>
      <trkpt lat="48.17711" lon="-2.78114">
        <ele>144.097656</ele>
        <time>2019-07-17T13:54:16Z</time>
      </trkpt>
      <trkpt lat="48.17692" lon="-2.78151">
        <ele>143.597656</ele>
        <time>2019-07-17T13:54:07Z</time>
      </trkpt>
      <trkpt lat="48.17661" lon="-2.78219">
        <ele>141.597656</ele>
        <time>2019-07-17T13:53:50Z</time>
      </trkpt>
      <trkpt lat="48.17651" lon="-2.78246">
        <ele>142.597656</ele>
        <time>2019-07-17T13:53:44Z</time>
      </trkpt>
      <trkpt lat="48.17642" lon="-2.78274">
        <ele>142.5</ele>
        <time>2019-07-17T13:53:38Z</time>
      </trkpt>
      <trkpt lat="48.17638" lon="-2.78288">
        <ele>142</ele>
        <time>2019-07-17T13:53:35Z</time>
      </trkpt>
      <trkpt lat="48.17633" lon="-2.78316">
        <ele>140.199219</ele>
        <time>2019-07-17T13:53:29Z</time>
      </trkpt>
      <trkpt lat="48.1763" lon="-2.78331">
        <ele>138.898438</ele>
        <time>2019-07-17T13:53:26Z</time>
      </trkpt>
      <trkpt lat="48.17628" lon="-2.78345">
        <ele>138</ele>
        <time>2019-07-17T13:53:23Z</time>
      </trkpt>
      <trkpt lat="48.17626" lon="-2.78359">
        <ele>137.398438</ele>
        <time>2019-07-17T13:53:20Z</time>
      </trkpt>
      <trkpt lat="48.17622" lon="-2.78436">
        <ele>137.296875</ele>
        <time>2019-07-17T13:53:03Z</time>
      </trkpt>
      <trkpt lat="48.17621" lon="-2.7845">
        <ele>136.597656</ele>
        <time>2019-07-17T13:53:00Z</time>
      </trkpt>
      <trkpt lat="48.17622" lon="-2.78466">
        <ele>135.296875</ele>
        <time>2019-07-17T13:52:57Z</time>
      </trkpt>
      <trkpt lat="48.17623" lon="-2.78484">
        <ele>133.597656</ele>
        <time>2019-07-17T13:52:54Z</time>
      </trkpt>
      <trkpt lat="48.17625" lon="-2.78501">
        <ele>132.796875</ele>
        <time>2019-07-17T13:52:51Z</time>
      </trkpt>
      <trkpt lat="48.17641" lon="-2.78582">
        <ele>132</ele>
        <time>2019-07-17T13:52:36Z</time>
      </trkpt>
      <trkpt lat="48.17652" lon="-2.78624">
        <ele>134.199219</ele>
        <time>2019-07-17T13:52:27Z</time>
      </trkpt>
      <trkpt lat="48.17656" lon="-2.78637">
        <ele>135.296875</ele>
        <time>2019-07-17T13:52:24Z</time>
      </trkpt>
      <trkpt lat="48.17661" lon="-2.78649">
        <ele>136.097656</ele>
        <time>2019-07-17T13:52:21Z</time>
      </trkpt>
      <trkpt lat="48.17678" lon="-2.78688">
        <ele>137.898438</ele>
        <time>2019-07-17T13:52:11Z</time>
      </trkpt>
      <trkpt lat="48.17684" lon="-2.78699">
        <ele>138.898438</ele>
        <time>2019-07-17T13:52:08Z</time>
      </trkpt>
      <trkpt lat="48.17698" lon="-2.78722">
        <ele>138.796875</ele>
        <time>2019-07-17T13:52:01Z</time>
      </trkpt>
      <trkpt lat="48.17883" lon="-2.78966">
        <ele>132.5</ele>
        <time>2019-07-17T13:50:25Z</time>
      </trkpt>
      <trkpt lat="48.17892" lon="-2.78978">
        <ele>132.199219</ele>
        <time>2019-07-17T13:50:21Z</time>
      </trkpt>
      <trkpt lat="48.17902" lon="-2.78985">
        <ele>131.398438</ele>
        <time>2019-07-17T13:50:17Z</time>
      </trkpt>
      <trkpt lat="48.17924" lon="-2.79022">
        <ele>131.199219</ele>
        <time>2019-07-17T13:50:05Z</time>
      </trkpt>
      <trkpt lat="48.18031" lon="-2.79169">
        <ele>126.097656</ele>
        <time>2019-07-17T13:49:26Z</time>
      </trkpt>
      <trkpt lat="48.1804" lon="-2.79181">
        <ele>125.796875</ele>
        <time>2019-07-17T13:49:23Z</time>
      </trkpt>
      <trkpt lat="48.18046" lon="-2.7919">
        <ele>126.296875</ele>
        <time>2019-07-17T13:49:20Z</time>
      </trkpt>
      <trkpt lat="48.18053" lon="-2.79202">
        <ele>126.097656</ele>
        <time>2019-07-17T13:49:17Z</time>
      </trkpt>
      <trkpt lat="48.18065" lon="-2.79227">
        <ele>125.796875</ele>
        <time>2019-07-17T13:49:10Z</time>
      </trkpt>
      <trkpt lat="48.18071" lon="-2.79241">
        <ele>124.597656</ele>
        <time>2019-07-17T13:49:06Z</time>
      </trkpt>
      <trkpt lat="48.18077" lon="-2.79255">
        <ele>122.796875</ele>
        <time>2019-07-17T13:49:02Z</time>
      </trkpt>
      <trkpt lat="48.18084" lon="-2.79282">
        <ele>120.296875</ele>
        <time>2019-07-17T13:48:56Z</time>
      </trkpt>
      <trkpt lat="48.18087" lon="-2.79298">
        <ele>119.296875</ele>
        <time>2019-07-17T13:48:52Z</time>
      </trkpt>
      <trkpt lat="48.1809" lon="-2.79314">
        <ele>119.296875</ele>
        <time>2019-07-17T13:48:48Z</time>
      </trkpt>
      <trkpt lat="48.18094" lon="-2.7938">
        <ele>117.097656</ele>
        <time>2019-07-17T13:48:33Z</time>
      </trkpt>
      <trkpt lat="48.18094" lon="-2.79396">
        <ele>116.796875</ele>
        <time>2019-07-17T13:48:29Z</time>
      </trkpt>
      <trkpt lat="48.18093" lon="-2.79412">
        <ele>114.699219</ele>
        <time>2019-07-17T13:48:25Z</time>
      </trkpt>
      <trkpt lat="48.18092" lon="-2.79428">
        <ele>112.5</ele>
        <time>2019-07-17T13:48:21Z</time>
      </trkpt>
      <trkpt lat="48.18089" lon="-2.79445">
        <ele>111.296875</ele>
        <time>2019-07-17T13:48:17Z</time>
      </trkpt>
      <trkpt lat="48.18083" lon="-2.79475">
        <ele>112.898438</ele>
        <time>2019-07-17T13:48:11Z</time>
      </trkpt>
      <trkpt lat="48.18078" lon="-2.79492">
        <ele>114.097656</ele>
        <time>2019-07-17T13:48:08Z</time>
      </trkpt>
      <trkpt lat="48.18072" lon="-2.7951">
        <ele>115.097656</ele>
        <time>2019-07-17T13:48:05Z</time>
      </trkpt>
      <trkpt lat="48.18061" lon="-2.79535">
        <ele>116.796875</ele>
        <time>2019-07-17T13:48:01Z</time>
      </trkpt>
      <trkpt lat="48.18027" lon="-2.79593">
        <ele>119.398438</ele>
        <time>2019-07-17T13:47:51Z</time>
      </trkpt>
      <trkpt lat="48.18021" lon="-2.79604">
        <ele>119.5</ele>
        <time>2019-07-17T13:47:49Z</time>
      </trkpt>
      <trkpt lat="48.18015" lon="-2.79617">
        <ele>120</ele>
        <time>2019-07-17T13:47:47Z</time>
      </trkpt>
      <trkpt lat="48.18008" lon="-2.79629">
        <ele>120.898438</ele>
        <time>2019-07-17T13:47:45Z</time>
      </trkpt>
      <trkpt lat="48.18001" lon="-2.79641">
        <ele>121.597656</ele>
        <time>2019-07-17T13:47:43Z</time>
      </trkpt>
      <trkpt lat="48.17993" lon="-2.79658">
        <ele>122.199219</ele>
        <time>2019-07-17T13:47:40Z</time>
      </trkpt>
      <trkpt lat="48.17956" lon="-2.7972">
        <ele>125.898438</ele>
        <time>2019-07-17T13:47:28Z</time>
      </trkpt>
      <trkpt lat="48.17948" lon="-2.79733">
        <ele>126.597656</ele>
        <time>2019-07-17T13:47:26Z</time>
      </trkpt>
      <trkpt lat="48.1794" lon="-2.79747">
        <ele>127.296875</ele>
        <time>2019-07-17T13:47:24Z</time>
      </trkpt>
      <trkpt lat="48.17934" lon="-2.79762">
        <ele>128.199219</ele>
        <time>2019-07-17T13:47:22Z</time>
      </trkpt>
      <trkpt lat="48.17924" lon="-2.79794">
        <ele>129.5</ele>
        <time>2019-07-17T13:47:18Z</time>
      </trkpt>
      <trkpt lat="48.17919" lon="-2.79809">
        <ele>130.199219</ele>
        <time>2019-07-17T13:47:16Z</time>
      </trkpt>
      <trkpt lat="48.17916" lon="-2.79825">
        <ele>130.796875</ele>
        <time>2019-07-17T13:47:14Z</time>
      </trkpt>
      <trkpt lat="48.17913" lon="-2.79842">
        <ele>130.796875</ele>
        <time>2019-07-17T13:47:12Z</time>
      </trkpt>
      <trkpt lat="48.17912" lon="-2.79859">
        <ele>130.699219</ele>
        <time>2019-07-17T13:47:10Z</time>
      </trkpt>
      <trkpt lat="48.17912" lon="-2.79875">
        <ele>130.597656</ele>
        <time>2019-07-17T13:47:08Z</time>
      </trkpt>
      <trkpt lat="48.17912" lon="-2.79891">
        <ele>130.699219</ele>
        <time>2019-07-17T13:47:06Z</time>
      </trkpt>
      <trkpt lat="48.17914" lon="-2.79905">
        <ele>131.199219</ele>
        <time>2019-07-17T13:47:04Z</time>
      </trkpt>
      <trkpt lat="48.17919" lon="-2.79918">
        <ele>131.597656</ele>
        <time>2019-07-17T13:47:02Z</time>
      </trkpt>
      <trkpt lat="48.17927" lon="-2.79927">
        <ele>132.296875</ele>
        <time>2019-07-17T13:47:00Z</time>
      </trkpt>
      <trkpt lat="48.18153" lon="-2.80023">
        <ele>143.597656</ele>
        <time>2019-07-17T13:46:14Z</time>
      </trkpt>
      <trkpt lat="48.18162" lon="-2.80028">
        <ele>143.296875</ele>
        <time>2019-07-17T13:46:11Z</time>
      </trkpt>
      <trkpt lat="48.18173" lon="-2.80035">
        <ele>143.398438</ele>
        <time>2019-07-17T13:46:07Z</time>
      </trkpt>
      <trkpt lat="48.1818" lon="-2.80047">
        <ele>144.5</ele>
        <time>2019-07-17T13:46:03Z</time>
      </trkpt>
      <trkpt lat="48.18181" lon="-2.80061">
        <ele>145.199219</ele>
        <time>2019-07-17T13:46:00Z</time>
      </trkpt>
      <trkpt lat="48.1818" lon="-2.80075">
        <ele>145.097656</ele>
        <time>2019-07-17T13:45:57Z</time>
      </trkpt>
      <trkpt lat="48.18172" lon="-2.80119">
        <ele>144.597656</ele>
        <time>2019-07-17T13:45:48Z</time>
      </trkpt>
      <trkpt lat="48.18141" lon="-2.80314">
        <ele>137.597656</ele>
        <time>2019-07-17T13:45:11Z</time>
      </trkpt>
      <trkpt lat="48.18135" lon="-2.80363">
        <ele>137.296875</ele>
        <time>2019-07-17T13:45:05Z</time>
      </trkpt>
      <trkpt lat="48.18132" lon="-2.80571">
        <ele>140.398438</ele>
        <time>2019-07-17T13:44:41Z</time>
      </trkpt>
      <trkpt lat="48.18132" lon="-2.80586">
        <ele>140.699219</ele>
        <time>2019-07-17T13:44:39Z</time>
      </trkpt>
      <trkpt lat="48.1813" lon="-2.806">
        <ele>141.097656</ele>
        <time>2019-07-17T13:44:37Z</time>
      </trkpt>
      <trkpt lat="48.18126" lon="-2.80617">
        <ele>141.296875</ele>
        <time>2019-07-17T13:44:34Z</time>
      </trkpt>
      <trkpt lat="48.18121" lon="-2.80634">
        <ele>141.296875</ele>
        <time>2019-07-17T13:44:31Z</time>
      </trkpt>
      <trkpt lat="48.18101" lon="-2.80692">
        <ele>140.699219</ele>
        <time>2019-07-17T13:44:19Z</time>
      </trkpt>
      <trkpt lat="48.18095" lon="-2.80706">
        <ele>140.5</ele>
        <time>2019-07-17T13:44:15Z</time>
      </trkpt>
      <trkpt lat="48.18086" lon="-2.80718">
        <ele>140.296875</ele>
        <time>2019-07-17T13:44:11Z</time>
      </trkpt>
      <trkpt lat="48.18076" lon="-2.80719">
        <ele>140</ele>
        <time>2019-07-17T13:44:07Z</time>
      </trkpt>
      <trkpt lat="48.18067" lon="-2.80715">
        <ele>140</ele>
        <time>2019-07-17T13:44:03Z</time>
      </trkpt>
      <trkpt lat="48.18058" lon="-2.80716">
        <ele>140.097656</ele>
        <time>2019-07-17T13:43:53Z</time>
      </trkpt>
      <trkpt lat="48.18052" lon="-2.8073">
        <ele>139.898438</ele>
        <time>2019-07-17T13:43:49Z</time>
      </trkpt>
      <trkpt lat="48.18048" lon="-2.80745">
        <ele>139.296875</ele>
        <time>2019-07-17T13:43:46Z</time>
      </trkpt>
      <trkpt lat="48.18045" lon="-2.8076">
        <ele>139.097656</ele>
        <time>2019-07-17T13:43:43Z</time>
      </trkpt>
      <trkpt lat="48.18043" lon="-2.80774">
        <ele>138.796875</ele>
        <time>2019-07-17T13:43:40Z</time>
      </trkpt>
      <trkpt lat="48.18044" lon="-2.8082">
        <ele>137</ele>
        <time>2019-07-17T13:43:31Z</time>
      </trkpt>
      <trkpt lat="48.18043" lon="-2.80836">
        <ele>136.398438</ele>
        <time>2019-07-17T13:43:28Z</time>
      </trkpt>
      <trkpt lat="48.18042" lon="-2.80852">
        <ele>135.796875</ele>
        <time>2019-07-17T13:43:25Z</time>
      </trkpt>
      <trkpt lat="48.18039" lon="-2.80868">
        <ele>135.199219</ele>
        <time>2019-07-17T13:43:22Z</time>
      </trkpt>
      <trkpt lat="48.18034" lon="-2.80883">
        <ele>134.5</ele>
        <time>2019-07-17T13:43:19Z</time>
      </trkpt>
      <trkpt lat="48.18025" lon="-2.80897">
        <ele>133.699219</ele>
        <time>2019-07-17T13:43:16Z</time>
      </trkpt>
      <trkpt lat="48.18018" lon="-2.80906">
        <ele>133.097656</ele>
        <time>2019-07-17T13:43:14Z</time>
      </trkpt>
      <trkpt lat="48.1801" lon="-2.80914">
        <ele>132.898438</ele>
        <time>2019-07-17T13:43:12Z</time>
      </trkpt>
      <trkpt lat="48.17999" lon="-2.80924">
        <ele>132.699219</ele>
        <time>2019-07-17T13:43:09Z</time>
      </trkpt>
      <trkpt lat="48.1799" lon="-2.80929">
        <ele>132.398438</ele>
        <time>2019-07-17T13:43:07Z</time>
      </trkpt>
      <trkpt lat="48.17981" lon="-2.80932">
        <ele>132.296875</ele>
        <time>2019-07-17T13:43:05Z</time>
      </trkpt>
      <trkpt lat="48.17972" lon="-2.80935">
        <ele>132.296875</ele>
        <time>2019-07-17T13:43:03Z</time>
      </trkpt>
      <trkpt lat="48.17949" lon="-2.80937">
        <ele>132.898438</ele>
        <time>2019-07-17T13:42:57Z</time>
      </trkpt>
      <trkpt lat="48.17938" lon="-2.80939">
        <ele>133.199219</ele>
        <time>2019-07-17T13:42:53Z</time>
      </trkpt>
      <trkpt lat="48.17935" lon="-2.80952">
        <ele>133.199219</ele>
        <time>2019-07-17T13:42:49Z</time>
      </trkpt>
      <trkpt lat="48.17941" lon="-2.80965">
        <ele>133.097656</ele>
        <time>2019-07-17T13:42:44Z</time>
      </trkpt>
      <trkpt lat="48.17952" lon="-2.80969">
        <ele>132.398438</ele>
        <time>2019-07-17T13:42:41Z</time>
      </trkpt>
      <trkpt lat="48.17964" lon="-2.80972">
        <ele>132.199219</ele>
        <time>2019-07-17T13:42:38Z</time>
      </trkpt>
      <trkpt lat="48.17976" lon="-2.80973">
        <ele>132.199219</ele>
        <time>2019-07-17T13:42:35Z</time>
      </trkpt>
      <trkpt lat="48.17987" lon="-2.80974">
        <ele>132.296875</ele>
        <time>2019-07-17T13:42:32Z</time>
      </trkpt>
      <trkpt lat="48.17996" lon="-2.80972">
        <ele>132.597656</ele>
        <time>2019-07-17T13:42:29Z</time>
      </trkpt>
      <trkpt lat="48.18017" lon="-2.80963">
        <ele>132.699219</ele>
        <time>2019-07-17T13:42:23Z</time>
      </trkpt>
      <trkpt lat="48.18029" lon="-2.80957">
        <ele>133.097656</ele>
        <time>2019-07-17T13:42:20Z</time>
      </trkpt>
      <trkpt lat="48.18041" lon="-2.80954">
        <ele>133.398438</ele>
        <time>2019-07-17T13:42:17Z</time>
      </trkpt>
      <trkpt lat="48.18053" lon="-2.80952">
        <ele>133.5</ele>
        <time>2019-07-17T13:42:14Z</time>
      </trkpt>
      <trkpt lat="48.18065" lon="-2.80953">
        <ele>133.5</ele>
        <time>2019-07-17T13:42:11Z</time>
      </trkpt>
      <trkpt lat="48.18077" lon="-2.80958">
        <ele>133.5</ele>
        <time>2019-07-17T13:42:08Z</time>
      </trkpt>
      <trkpt lat="48.18087" lon="-2.80964">
        <ele>133.398438</ele>
        <time>2019-07-17T13:42:05Z</time>
      </trkpt>
      <trkpt lat="48.18096" lon="-2.80973">
        <ele>133.199219</ele>
        <time>2019-07-17T13:42:02Z</time>
      </trkpt>
      <trkpt lat="48.18103" lon="-2.80983">
        <ele>133</ele>
        <time>2019-07-17T13:41:59Z</time>
      </trkpt>
      <trkpt lat="48.1811" lon="-2.80995">
        <ele>132.796875</ele>
        <time>2019-07-17T13:41:56Z</time>
      </trkpt>
      <trkpt lat="48.18115" lon="-2.81007">
        <ele>132.597656</ele>
        <time>2019-07-17T13:41:53Z</time>
      </trkpt>
      <trkpt lat="48.18119" lon="-2.8102">
        <ele>132.5</ele>
        <time>2019-07-17T13:41:50Z</time>
      </trkpt>
      <trkpt lat="48.18123" lon="-2.81034">
        <ele>132.5</ele>
        <time>2019-07-17T13:41:47Z</time>
      </trkpt>
      <trkpt lat="48.18127" lon="-2.81049">
        <ele>132.296875</ele>
        <time>2019-07-17T13:41:44Z</time>
      </trkpt>
      <trkpt lat="48.18132" lon="-2.8108">
        <ele>132</ele>
        <time>2019-07-17T13:41:38Z</time>
      </trkpt>
      <trkpt lat="48.18135" lon="-2.81111">
        <ele>132.097656</ele>
        <time>2019-07-17T13:41:32Z</time>
      </trkpt>
      <trkpt lat="48.1814" lon="-2.81225">
        <ele>130</ele>
        <time>2019-07-17T13:41:11Z</time>
      </trkpt>
      <trkpt lat="48.18137" lon="-2.81447">
        <ele>125</ele>
        <time>2019-07-17T13:40:28Z</time>
      </trkpt>
      <trkpt lat="48.18136" lon="-2.81462">
        <ele>124.5</ele>
        <time>2019-07-17T13:40:25Z</time>
      </trkpt>
      <trkpt lat="48.18137" lon="-2.81477">
        <ele>124</ele>
        <time>2019-07-17T13:40:22Z</time>
      </trkpt>
      <trkpt lat="48.18143" lon="-2.81489">
        <ele>123.699219</ele>
        <time>2019-07-17T13:40:19Z</time>
      </trkpt>
      <trkpt lat="48.18154" lon="-2.81491">
        <ele>123.296875</ele>
        <time>2019-07-17T13:40:16Z</time>
      </trkpt>
      <trkpt lat="48.18167" lon="-2.81493">
        <ele>122.398438</ele>
        <time>2019-07-17T13:40:13Z</time>
      </trkpt>
      <trkpt lat="48.18181" lon="-2.81494">
        <ele>122.398438</ele>
        <time>2019-07-17T13:40:10Z</time>
      </trkpt>
      <trkpt lat="48.1819" lon="-2.81497">
        <ele>122.296875</ele>
        <time>2019-07-17T13:40:08Z</time>
      </trkpt>
      <trkpt lat="48.18197" lon="-2.81511">
        <ele>122.398438</ele>
        <time>2019-07-17T13:40:05Z</time>
      </trkpt>
      <trkpt lat="48.18186" lon="-2.81646">
        <ele>122.699219</ele>
        <time>2019-07-17T13:39:51Z</time>
      </trkpt>
      <trkpt lat="48.1818" lon="-2.81705">
        <ele>124.199219</ele>
        <time>2019-07-17T13:39:45Z</time>
      </trkpt>
      <trkpt lat="48.18177" lon="-2.81721">
        <ele>124.898438</ele>
        <time>2019-07-17T13:39:43Z</time>
      </trkpt>
      <trkpt lat="48.18087" lon="-2.82086">
        <ele>119</ele>
        <time>2019-07-17T13:38:34Z</time>
      </trkpt>
      <trkpt lat="48.18066" lon="-2.82194">
        <ele>118</ele>
        <time>2019-07-17T13:38:13Z</time>
      </trkpt>
      <trkpt lat="48.18063" lon="-2.82211">
        <ele>117.898438</ele>
        <time>2019-07-17T13:38:09Z</time>
      </trkpt>
      <trkpt lat="48.1806" lon="-2.82224">
        <ele>117.398438</ele>
        <time>2019-07-17T13:38:06Z</time>
      </trkpt>
      <trkpt lat="48.18056" lon="-2.82237">
        <ele>116.796875</ele>
        <time>2019-07-17T13:38:03Z</time>
      </trkpt>
      <trkpt lat="48.18044" lon="-2.82326">
        <ele>114.398438</ele>
        <time>2019-07-17T13:37:45Z</time>
      </trkpt>
      <trkpt lat="48.18041" lon="-2.82341">
        <ele>113.097656</ele>
        <time>2019-07-17T13:37:42Z</time>
      </trkpt>
      <trkpt lat="48.18038" lon="-2.82373">
        <ele>111.898438</ele>
        <time>2019-07-17T13:37:36Z</time>
      </trkpt>
      <trkpt lat="48.18035" lon="-2.82475">
        <ele>111</ele>
        <time>2019-07-17T13:37:18Z</time>
      </trkpt>
      <trkpt lat="48.18037" lon="-2.82524">
        <ele>111</ele>
        <time>2019-07-17T13:37:09Z</time>
      </trkpt>
      <trkpt lat="48.18042" lon="-2.82591">
        <ele>110.597656</ele>
        <time>2019-07-17T13:36:57Z</time>
      </trkpt>
      <trkpt lat="48.18048" lon="-2.82637">
        <ele>111.398438</ele>
        <time>2019-07-17T13:36:48Z</time>
      </trkpt>
      <trkpt lat="48.1805" lon="-2.82651">
        <ele>111.597656</ele>
        <time>2019-07-17T13:36:45Z</time>
      </trkpt>
      <trkpt lat="48.18053" lon="-2.82664">
        <ele>111.398438</ele>
        <time>2019-07-17T13:36:42Z</time>
      </trkpt>
      <trkpt lat="48.18079" lon="-2.82761">
        <ele>110.199219</ele>
        <time>2019-07-17T13:36:21Z</time>
      </trkpt>
      <trkpt lat="48.18088" lon="-2.82787">
        <ele>110.398438</ele>
        <time>2019-07-17T13:36:15Z</time>
      </trkpt>
      <trkpt lat="48.18097" lon="-2.82814">
        <ele>110.5</ele>
        <time>2019-07-17T13:36:09Z</time>
      </trkpt>
      <trkpt lat="48.18113" lon="-2.82853">
        <ele>110.296875</ele>
        <time>2019-07-17T13:36:00Z</time>
      </trkpt>
      <trkpt lat="48.18126" lon="-2.82878">
        <ele>109.898438</ele>
        <time>2019-07-17T13:35:54Z</time>
      </trkpt>
      <trkpt lat="48.18151" lon="-2.82922">
        <ele>108.597656</ele>
        <time>2019-07-17T13:35:42Z</time>
      </trkpt>
      <trkpt lat="48.18211" lon="-2.83">
        <ele>105.597656</ele>
        <time>2019-07-17T13:35:17Z</time>
      </trkpt>
      <trkpt lat="48.18219" lon="-2.83011">
        <ele>105.097656</ele>
        <time>2019-07-17T13:35:13Z</time>
      </trkpt>
      <trkpt lat="48.18221" lon="-2.83029">
        <ele>104.597656</ele>
        <time>2019-07-17T13:35:09Z</time>
      </trkpt>
      <trkpt lat="48.18222" lon="-2.83044">
        <ele>103.898438</ele>
        <time>2019-07-17T13:35:05Z</time>
      </trkpt>
      <trkpt lat="48.18226" lon="-2.8306">
        <ele>102.699219</ele>
        <time>2019-07-17T13:35:01Z</time>
      </trkpt>
      <trkpt lat="48.18233" lon="-2.8307">
        <ele>101</ele>
        <time>2019-07-17T13:34:58Z</time>
      </trkpt>
      <trkpt lat="48.18293" lon="-2.83134">
        <ele>97.898438</ele>
        <time>2019-07-17T13:34:37Z</time>
      </trkpt>
      <trkpt lat="48.18301" lon="-2.83142">
        <ele>97.796875</ele>
        <time>2019-07-17T13:34:34Z</time>
      </trkpt>
      <trkpt lat="48.18311" lon="-2.8315">
        <ele>97.699219</ele>
        <time>2019-07-17T13:34:30Z</time>
      </trkpt>
      <trkpt lat="48.18321" lon="-2.83153">
        <ele>97.199219</ele>
        <time>2019-07-17T13:34:26Z</time>
      </trkpt>
      <trkpt lat="48.18331" lon="-2.83155">
        <ele>96.699219</ele>
        <time>2019-07-17T13:34:21Z</time>
      </trkpt>
      <trkpt lat="48.18339" lon="-2.8316">
        <ele>96.5</ele>
        <time>2019-07-17T13:34:17Z</time>
      </trkpt>
      <trkpt lat="48.18349" lon="-2.83168">
        <ele>96.898438</ele>
        <time>2019-07-17T13:34:13Z</time>
      </trkpt>
      <trkpt lat="48.18357" lon="-2.83176">
        <ele>97.398438</ele>
        <time>2019-07-17T13:34:10Z</time>
      </trkpt>
      <trkpt lat="48.18373" lon="-2.83197">
        <ele>97.296875</ele>
        <time>2019-07-17T13:34:04Z</time>
      </trkpt>
      <trkpt lat="48.1839" lon="-2.83223">
        <ele>97</ele>
        <time>2019-07-17T13:33:58Z</time>
      </trkpt>
      <trkpt lat="48.18405" lon="-2.8325">
        <ele>97.296875</ele>
        <time>2019-07-17T13:33:52Z</time>
      </trkpt>
      <trkpt lat="48.18429" lon="-2.833">
        <ele>96.296875</ele>
        <time>2019-07-17T13:33:40Z</time>
      </trkpt>
      <trkpt lat="48.18455" lon="-2.83367">
        <ele>92.796875</ele>
        <time>2019-07-17T13:33:23Z</time>
      </trkpt>
      <trkpt lat="48.18465" lon="-2.83396">
        <ele>91.097656</ele>
        <time>2019-07-17T13:33:18Z</time>
      </trkpt>
      <trkpt lat="48.18468" lon="-2.83409">
        <ele>90.898438</ele>
        <time>2019-07-17T13:33:16Z</time>
      </trkpt>
      <trkpt lat="48.1847" lon="-2.83427">
        <ele>90.796875</ele>
        <time>2019-07-17T13:33:13Z</time>
      </trkpt>
      <trkpt lat="48.18461" lon="-2.83439">
        <ele>90.296875</ele>
        <time>2019-07-17T13:33:10Z</time>
      </trkpt>
      <trkpt lat="48.18439" lon="-2.83448">
        <ele>89.5</ele>
        <time>2019-07-17T13:33:04Z</time>
      </trkpt>
      <trkpt lat="48.18427" lon="-2.83455">
        <ele>89.398438</ele>
        <time>2019-07-17T13:33:01Z</time>
      </trkpt>
      <trkpt lat="48.18418" lon="-2.83468">
        <ele>89.199219</ele>
        <time>2019-07-17T13:32:58Z</time>
      </trkpt>
      <trkpt lat="48.18411" lon="-2.83483">
        <ele>88.898438</ele>
        <time>2019-07-17T13:32:55Z</time>
      </trkpt>
      <trkpt lat="48.18408" lon="-2.835">
        <ele>88.898438</ele>
        <time>2019-07-17T13:32:52Z</time>
      </trkpt>
      <trkpt lat="48.18435" lon="-2.83735">
        <ele>88.199219</ele>
        <time>2019-07-17T13:32:16Z</time>
      </trkpt>
      <trkpt lat="48.18447" lon="-2.83824">
        <ele>90.097656</ele>
        <time>2019-07-17T13:32:04Z</time>
      </trkpt>
      <trkpt lat="48.18477" lon="-2.83977">
        <ele>86.5</ele>
        <time>2019-07-17T13:31:41Z</time>
      </trkpt>
      <trkpt lat="48.18487" lon="-2.84042">
        <ele>87.796875</ele>
        <time>2019-07-17T13:31:31Z</time>
      </trkpt>
      <trkpt lat="48.18493" lon="-2.8408">
        <ele>89.796875</ele>
        <time>2019-07-17T13:31:25Z</time>
      </trkpt>
      <trkpt lat="48.18497" lon="-2.84098">
        <ele>90.597656</ele>
        <time>2019-07-17T13:31:22Z</time>
      </trkpt>
      <trkpt lat="48.18501" lon="-2.84115">
        <ele>91.597656</ele>
        <time>2019-07-17T13:31:19Z</time>
      </trkpt>
      <trkpt lat="48.18507" lon="-2.84144">
        <ele>92.5</ele>
        <time>2019-07-17T13:31:13Z</time>
      </trkpt>
      <trkpt lat="48.18514" lon="-2.84175">
        <ele>94.796875</ele>
        <time>2019-07-17T13:31:07Z</time>
      </trkpt>
      <trkpt lat="48.18518" lon="-2.84189">
        <ele>95.699219</ele>
        <time>2019-07-17T13:31:04Z</time>
      </trkpt>
      <trkpt lat="48.18527" lon="-2.84198">
        <ele>96</ele>
        <time>2019-07-17T13:31:01Z</time>
      </trkpt>
      <trkpt lat="48.18536" lon="-2.84209">
        <ele>96.097656</ele>
        <time>2019-07-17T13:30:58Z</time>
      </trkpt>
      <trkpt lat="48.18559" lon="-2.84332">
        <ele>95.5</ele>
        <time>2019-07-17T13:30:32Z</time>
      </trkpt>
      <trkpt lat="48.18562" lon="-2.84347">
        <ele>95.398438</ele>
        <time>2019-07-17T13:30:28Z</time>
      </trkpt>
      <trkpt lat="48.18567" lon="-2.84364">
        <ele>96.5</ele>
        <time>2019-07-17T13:30:25Z</time>
      </trkpt>
      <trkpt lat="48.18579" lon="-2.84419">
        <ele>98.296875</ele>
        <time>2019-07-17T13:30:16Z</time>
      </trkpt>
      <trkpt lat="48.18584" lon="-2.84438">
        <ele>99.296875</ele>
        <time>2019-07-17T13:30:13Z</time>
      </trkpt>
      <trkpt lat="48.18592" lon="-2.84464">
        <ele>100.898438</ele>
        <time>2019-07-17T13:30:09Z</time>
      </trkpt>
      <trkpt lat="48.18597" lon="-2.84476">
        <ele>101.097656</ele>
        <time>2019-07-17T13:30:07Z</time>
      </trkpt>
      <trkpt lat="48.18603" lon="-2.84488">
        <ele>101.199219</ele>
        <time>2019-07-17T13:30:05Z</time>
      </trkpt>
      <trkpt lat="48.18616" lon="-2.84512">
        <ele>101.199219</ele>
        <time>2019-07-17T13:30:01Z</time>
      </trkpt>
      <trkpt lat="48.18623" lon="-2.84523">
        <ele>101.296875</ele>
        <time>2019-07-17T13:29:59Z</time>
      </trkpt>
      <trkpt lat="48.18638" lon="-2.84543">
        <ele>101.398438</ele>
        <time>2019-07-17T13:29:55Z</time>
      </trkpt>
      <trkpt lat="48.18646" lon="-2.84552">
        <ele>101.398438</ele>
        <time>2019-07-17T13:29:53Z</time>
      </trkpt>
      <trkpt lat="48.18733" lon="-2.84617">
        <ele>101.597656</ele>
        <time>2019-07-17T13:29:33Z</time>
      </trkpt>
      <trkpt lat="48.18745" lon="-2.84626">
        <ele>101.5</ele>
        <time>2019-07-17T13:29:30Z</time>
      </trkpt>
      <trkpt lat="48.18756" lon="-2.84637">
        <ele>101.097656</ele>
        <time>2019-07-17T13:29:27Z</time>
      </trkpt>
      <trkpt lat="48.18765" lon="-2.84648">
        <ele>101.097656</ele>
        <time>2019-07-17T13:29:24Z</time>
      </trkpt>
      <trkpt lat="48.18783" lon="-2.84673">
        <ele>101.097656</ele>
        <time>2019-07-17T13:29:18Z</time>
      </trkpt>
      <trkpt lat="48.1879" lon="-2.84685">
        <ele>100.699219</ele>
        <time>2019-07-17T13:29:15Z</time>
      </trkpt>
      <trkpt lat="48.18797" lon="-2.84698">
        <ele>100.398438</ele>
        <time>2019-07-17T13:29:12Z</time>
      </trkpt>
      <trkpt lat="48.18807" lon="-2.84724">
        <ele>100.097656</ele>
        <time>2019-07-17T13:29:04Z</time>
      </trkpt>
      <trkpt lat="48.18812" lon="-2.84737">
        <ele>98.699219</ele>
        <time>2019-07-17T13:28:59Z</time>
      </trkpt>
      <trkpt lat="48.1882" lon="-2.84766">
        <ele>97.597656</ele>
        <time>2019-07-17T13:28:54Z</time>
      </trkpt>
      <trkpt lat="48.18823" lon="-2.84779">
        <ele>97.796875</ele>
        <time>2019-07-17T13:28:52Z</time>
      </trkpt>
      <trkpt lat="48.18841" lon="-2.84882">
        <ele>96.699219</ele>
        <time>2019-07-17T13:28:38Z</time>
      </trkpt>
      <trkpt lat="48.18847" lon="-2.84926">
        <ele>94.699219</ele>
        <time>2019-07-17T13:28:32Z</time>
      </trkpt>
      <trkpt lat="48.18849" lon="-2.84941">
        <ele>94.097656</ele>
        <time>2019-07-17T13:28:30Z</time>
      </trkpt>
      <trkpt lat="48.1885" lon="-2.84972">
        <ele>92.5</ele>
        <time>2019-07-17T13:28:26Z</time>
      </trkpt>
      <trkpt lat="48.1885" lon="-2.84987">
        <ele>91.699219</ele>
        <time>2019-07-17T13:28:24Z</time>
      </trkpt>
      <trkpt lat="48.18849" lon="-2.85004">
        <ele>90.597656</ele>
        <time>2019-07-17T13:28:22Z</time>
      </trkpt>
      <trkpt lat="48.18848" lon="-2.8502">
        <ele>89.5</ele>
        <time>2019-07-17T13:28:20Z</time>
      </trkpt>
      <trkpt lat="48.18842" lon="-2.85053">
        <ele>87.699219</ele>
        <time>2019-07-17T13:28:16Z</time>
      </trkpt>
      <trkpt lat="48.18784" lon="-2.85275">
        <ele>93.398438</ele>
        <time>2019-07-17T13:27:46Z</time>
      </trkpt>
      <trkpt lat="48.18776" lon="-2.85306">
        <ele>95.398438</ele>
        <time>2019-07-17T13:27:42Z</time>
      </trkpt>
      <trkpt lat="48.18765" lon="-2.85334">
        <ele>97.199219</ele>
        <time>2019-07-17T13:27:38Z</time>
      </trkpt>
      <trkpt lat="48.18761" lon="-2.85349">
        <ele>98.097656</ele>
        <time>2019-07-17T13:27:36Z</time>
      </trkpt>
      <trkpt lat="48.18755" lon="-2.85363">
        <ele>98.597656</ele>
        <time>2019-07-17T13:27:34Z</time>
      </trkpt>
      <trkpt lat="48.18735" lon="-2.85421">
        <ele>102.597656</ele>
        <time>2019-07-17T13:27:26Z</time>
      </trkpt>
      <trkpt lat="48.18718" lon="-2.85463">
        <ele>105.898438</ele>
        <time>2019-07-17T13:27:20Z</time>
      </trkpt>
      <trkpt lat="48.18712" lon="-2.85477">
        <ele>106.699219</ele>
        <time>2019-07-17T13:27:18Z</time>
      </trkpt>
      <trkpt lat="48.18684" lon="-2.85558">
        <ele>108.5</ele>
        <time>2019-07-17T13:27:06Z</time>
      </trkpt>
      <trkpt lat="48.18679" lon="-2.85571">
        <ele>107.796875</ele>
        <time>2019-07-17T13:27:04Z</time>
      </trkpt>
      <trkpt lat="48.18676" lon="-2.85585">
        <ele>107.296875</ele>
        <time>2019-07-17T13:27:02Z</time>
      </trkpt>
      <trkpt lat="48.1867" lon="-2.85611">
        <ele>108.898438</ele>
        <time>2019-07-17T13:26:58Z</time>
      </trkpt>
      <trkpt lat="48.18667" lon="-2.8564">
        <ele>110.097656</ele>
        <time>2019-07-17T13:26:54Z</time>
      </trkpt>
      <trkpt lat="48.18665" lon="-2.85655">
        <ele>109.898438</ele>
        <time>2019-07-17T13:26:52Z</time>
      </trkpt>
      <trkpt lat="48.18664" lon="-2.85686">
        <ele>111.398438</ele>
        <time>2019-07-17T13:26:48Z</time>
      </trkpt>
      <trkpt lat="48.18664" lon="-2.85701">
        <ele>111.898438</ele>
        <time>2019-07-17T13:26:46Z</time>
      </trkpt>
      <trkpt lat="48.18666" lon="-2.85715">
        <ele>112.5</ele>
        <time>2019-07-17T13:26:44Z</time>
      </trkpt>
      <trkpt lat="48.18668" lon="-2.85732">
        <ele>114.898438</ele>
        <time>2019-07-17T13:26:41Z</time>
      </trkpt>
      <trkpt lat="48.18671" lon="-2.85746">
        <ele>117.699219</ele>
        <time>2019-07-17T13:26:39Z</time>
      </trkpt>
      <trkpt lat="48.18678" lon="-2.85775">
        <ele>121.699219</ele>
        <time>2019-07-17T13:26:35Z</time>
      </trkpt>
      <trkpt lat="48.18688" lon="-2.85803">
        <ele>122.097656</ele>
        <time>2019-07-17T13:26:31Z</time>
      </trkpt>
      <trkpt lat="48.18693" lon="-2.85816">
        <ele>122.097656</ele>
        <time>2019-07-17T13:26:29Z</time>
      </trkpt>
      <trkpt lat="48.18709" lon="-2.85849">
        <ele>121.796875</ele>
        <time>2019-07-17T13:26:23Z</time>
      </trkpt>
      <trkpt lat="48.18718" lon="-2.85865">
        <ele>121.796875</ele>
        <time>2019-07-17T13:26:20Z</time>
      </trkpt>
      <trkpt lat="48.18737" lon="-2.8589">
        <ele>121.398438</ele>
        <time>2019-07-17T13:26:14Z</time>
      </trkpt>
      <trkpt lat="48.18746" lon="-2.85901">
        <ele>121.5</ele>
        <time>2019-07-17T13:26:10Z</time>
      </trkpt>
      <trkpt lat="48.18754" lon="-2.85909">
        <ele>121.5</ele>
        <time>2019-07-17T13:26:05Z</time>
      </trkpt>
      <trkpt lat="48.18763" lon="-2.85909">
        <ele>121.699219</ele>
        <time>2019-07-17T13:26:01Z</time>
      </trkpt>
      <trkpt lat="48.18773" lon="-2.8592">
        <ele>120.796875</ele>
        <time>2019-07-17T13:25:57Z</time>
      </trkpt>
      <trkpt lat="48.18781" lon="-2.85929">
        <ele>120.097656</ele>
        <time>2019-07-17T13:25:54Z</time>
      </trkpt>
      <trkpt lat="48.1879" lon="-2.85934">
        <ele>119.597656</ele>
        <time>2019-07-17T13:25:52Z</time>
      </trkpt>
      <trkpt lat="48.18958" lon="-2.86012">
        <ele>123.097656</ele>
        <time>2019-07-17T13:25:16Z</time>
      </trkpt>
      <trkpt lat="48.18992" lon="-2.8603">
        <ele>122.296875</ele>
        <time>2019-07-17T13:25:08Z</time>
      </trkpt>
      <trkpt lat="48.19003" lon="-2.86038">
        <ele>121.597656</ele>
        <time>2019-07-17T13:25:05Z</time>
      </trkpt>
      <trkpt lat="48.19022" lon="-2.86056">
        <ele>121.597656</ele>
        <time>2019-07-17T13:25:00Z</time>
      </trkpt>
      <trkpt lat="48.1903" lon="-2.86065">
        <ele>122</ele>
        <time>2019-07-17T13:24:58Z</time>
      </trkpt>
      <trkpt lat="48.19038" lon="-2.86075">
        <ele>122.5</ele>
        <time>2019-07-17T13:24:56Z</time>
      </trkpt>
      <trkpt lat="48.19046" lon="-2.86086">
        <ele>123.398438</ele>
        <time>2019-07-17T13:24:54Z</time>
      </trkpt>
      <trkpt lat="48.1906" lon="-2.8611">
        <ele>125.5</ele>
        <time>2019-07-17T13:24:50Z</time>
      </trkpt>
      <trkpt lat="48.19067" lon="-2.86123">
        <ele>126</ele>
        <time>2019-07-17T13:24:48Z</time>
      </trkpt>
      <trkpt lat="48.19074" lon="-2.86137">
        <ele>126.199219</ele>
        <time>2019-07-17T13:24:46Z</time>
      </trkpt>
      <trkpt lat="48.1908" lon="-2.86151">
        <ele>126.5</ele>
        <time>2019-07-17T13:24:44Z</time>
      </trkpt>
      <trkpt lat="48.19085" lon="-2.86167">
        <ele>127</ele>
        <time>2019-07-17T13:24:42Z</time>
      </trkpt>
      <trkpt lat="48.19089" lon="-2.86182">
        <ele>127.097656</ele>
        <time>2019-07-17T13:24:40Z</time>
      </trkpt>
      <trkpt lat="48.19093" lon="-2.86198">
        <ele>127</ele>
        <time>2019-07-17T13:24:38Z</time>
      </trkpt>
      <trkpt lat="48.19098" lon="-2.8623">
        <ele>126.5</ele>
        <time>2019-07-17T13:24:34Z</time>
      </trkpt>
      <trkpt lat="48.19099" lon="-2.86246">
        <ele>126.5</ele>
        <time>2019-07-17T13:24:32Z</time>
      </trkpt>
      <trkpt lat="48.191" lon="-2.86261">
        <ele>126.796875</ele>
        <time>2019-07-17T13:24:30Z</time>
      </trkpt>
      <trkpt lat="48.19101" lon="-2.86275">
        <ele>126.898438</ele>
        <time>2019-07-17T13:24:28Z</time>
      </trkpt>
      <trkpt lat="48.19099" lon="-2.86294">
        <ele>126.796875</ele>
        <time>2019-07-17T13:24:25Z</time>
      </trkpt>
      <trkpt lat="48.19097" lon="-2.86313">
        <ele>126.5</ele>
        <time>2019-07-17T13:24:22Z</time>
      </trkpt>
      <trkpt lat="48.19092" lon="-2.86346">
        <ele>126.597656</ele>
        <time>2019-07-17T13:24:17Z</time>
      </trkpt>
      <trkpt lat="48.19084" lon="-2.86377">
        <ele>126.398438</ele>
        <time>2019-07-17T13:24:12Z</time>
      </trkpt>
      <trkpt lat="48.1908" lon="-2.8639">
        <ele>128</ele>
        <time>2019-07-17T13:24:10Z</time>
      </trkpt>
      <trkpt lat="48.1907" lon="-2.8642">
        <ele>133.699219</ele>
        <time>2019-07-17T13:24:05Z</time>
      </trkpt>
      <trkpt lat="48.19006" lon="-2.86605">
        <ele>150</ele>
        <time>2019-07-17T13:23:32Z</time>
      </trkpt>
      <trkpt lat="48.19001" lon="-2.86618">
        <ele>152.398438</ele>
        <time>2019-07-17T13:23:29Z</time>
      </trkpt>
      <trkpt lat="48.18995" lon="-2.86629">
        <ele>153.398438</ele>
        <time>2019-07-17T13:23:26Z</time>
      </trkpt>
      <trkpt lat="48.18986" lon="-2.86654">
        <ele>153.699219</ele>
        <time>2019-07-17T13:23:20Z</time>
      </trkpt>
      <trkpt lat="48.18981" lon="-2.8667">
        <ele>155</ele>
        <time>2019-07-17T13:23:16Z</time>
      </trkpt>
      <trkpt lat="48.18979" lon="-2.86684">
        <ele>157.796875</ele>
        <time>2019-07-17T13:23:10Z</time>
      </trkpt>
      <trkpt lat="48.18981" lon="-2.86699">
        <ele>160.699219</ele>
        <time>2019-07-17T13:21:47Z</time>
      </trkpt>
      <trkpt lat="48.18978" lon="-2.86712">
        <ele>151.796875</ele>
        <time>2019-07-17T13:21:43Z</time>
      </trkpt>
      <trkpt lat="48.18974" lon="-2.86726">
        <ele>152.796875</ele>
        <time>2019-07-17T13:21:38Z</time>
      </trkpt>
      <trkpt lat="48.18967" lon="-2.86716">
        <ele>154.796875</ele>
        <time>2019-07-17T13:21:33Z</time>
      </trkpt>
      <trkpt lat="48.18963" lon="-2.86701">
        <ele>154.199219</ele>
        <time>2019-07-17T13:21:29Z</time>
      </trkpt>
      <trkpt lat="48.18961" lon="-2.86686">
        <ele>153.296875</ele>
        <time>2019-07-17T13:21:25Z</time>
      </trkpt>
      <trkpt lat="48.18962" lon="-2.86668">
        <ele>152.5</ele>
        <time>2019-07-17T13:21:22Z</time>
      </trkpt>
      <trkpt lat="48.18965" lon="-2.86652">
        <ele>151.597656</ele>
        <time>2019-07-17T13:21:20Z</time>
      </trkpt>
      <trkpt lat="48.18971" lon="-2.86638">
        <ele>151.097656</ele>
        <time>2019-07-17T13:21:18Z</time>
      </trkpt>
      <trkpt lat="48.18979" lon="-2.86624">
        <ele>150.796875</ele>
        <time>2019-07-17T13:21:16Z</time>
      </trkpt>
      <trkpt lat="48.18984" lon="-2.86611">
        <ele>150.5</ele>
        <time>2019-07-17T13:21:14Z</time>
      </trkpt>
      <trkpt lat="48.18994" lon="-2.86587">
        <ele>150.796875</ele>
        <time>2019-07-17T13:21:10Z</time>
      </trkpt>
      <trkpt lat="48.19027" lon="-2.86489">
        <ele>148.796875</ele>
        <time>2019-07-17T13:20:48Z</time>
      </trkpt>
      <trkpt lat="48.19031" lon="-2.86473">
        <ele>147.199219</ele>
        <time>2019-07-17T13:20:44Z</time>
      </trkpt>
      <trkpt lat="48.19035" lon="-2.86457">
        <ele>145.398438</ele>
        <time>2019-07-17T13:20:40Z</time>
      </trkpt>
      <trkpt lat="48.19037" lon="-2.86444">
        <ele>144.097656</ele>
        <time>2019-07-17T13:20:37Z</time>
      </trkpt>
      <trkpt lat="48.19038" lon="-2.86408">
        <ele>140.597656</ele>
        <time>2019-07-17T13:20:31Z</time>
      </trkpt>
      <trkpt lat="48.19038" lon="-2.86391">
        <ele>139.398438</ele>
        <time>2019-07-17T13:20:28Z</time>
      </trkpt>
      <trkpt lat="48.1904" lon="-2.86374">
        <ele>139</ele>
        <time>2019-07-17T13:20:25Z</time>
      </trkpt>
      <trkpt lat="48.19042" lon="-2.86357">
        <ele>139.199219</ele>
        <time>2019-07-17T13:20:22Z</time>
      </trkpt>
      <trkpt lat="48.19038" lon="-2.8634">
        <ele>139.097656</ele>
        <time>2019-07-17T13:20:19Z</time>
      </trkpt>
      <trkpt lat="48.19031" lon="-2.86324">
        <ele>138.796875</ele>
        <time>2019-07-17T13:20:16Z</time>
      </trkpt>
      <trkpt lat="48.19023" lon="-2.86309">
        <ele>138.097656</ele>
        <time>2019-07-17T13:20:13Z</time>
      </trkpt>
      <trkpt lat="48.18998" lon="-2.86275">
        <ele>138.296875</ele>
        <time>2019-07-17T13:20:04Z</time>
      </trkpt>
      <trkpt lat="48.18992" lon="-2.86265">
        <ele>138.597656</ele>
        <time>2019-07-17T13:20:01Z</time>
      </trkpt>
      <trkpt lat="48.18983" lon="-2.86254">
        <ele>139.199219</ele>
        <time>2019-07-17T13:19:58Z</time>
      </trkpt>
      <trkpt lat="48.18956" lon="-2.86229">
        <ele>141.398438</ele>
        <time>2019-07-17T13:19:49Z</time>
      </trkpt>
      <trkpt lat="48.18929" lon="-2.86199">
        <ele>142</ele>
        <time>2019-07-17T13:19:40Z</time>
      </trkpt>
      <trkpt lat="48.1892" lon="-2.8619">
        <ele>142.5</ele>
        <time>2019-07-17T13:19:37Z</time>
      </trkpt>
      <trkpt lat="48.18909" lon="-2.8618">
        <ele>142.296875</ele>
        <time>2019-07-17T13:19:34Z</time>
      </trkpt>
      <trkpt lat="48.18886" lon="-2.86174">
        <ele>142.398438</ele>
        <time>2019-07-17T13:19:28Z</time>
      </trkpt>
      <trkpt lat="48.1882" lon="-2.86158">
        <ele>140.296875</ele>
        <time>2019-07-17T13:19:11Z</time>
      </trkpt>
      <trkpt lat="48.1881" lon="-2.86154">
        <ele>140.398438</ele>
        <time>2019-07-17T13:19:08Z</time>
      </trkpt>
      <trkpt lat="48.188" lon="-2.86148">
        <ele>140.898438</ele>
        <time>2019-07-17T13:19:05Z</time>
      </trkpt>
      <trkpt lat="48.18792" lon="-2.86139">
        <ele>140.898438</ele>
        <time>2019-07-17T13:19:02Z</time>
      </trkpt>
      <trkpt lat="48.18783" lon="-2.8613">
        <ele>141.199219</ele>
        <time>2019-07-17T13:18:59Z</time>
      </trkpt>
      <trkpt lat="48.18771" lon="-2.86126">
        <ele>142.199219</ele>
        <time>2019-07-17T13:18:56Z</time>
      </trkpt>
      <trkpt lat="48.18748" lon="-2.86121">
        <ele>141.699219</ele>
        <time>2019-07-17T13:18:50Z</time>
      </trkpt>
      <trkpt lat="48.18738" lon="-2.86119">
        <ele>141.296875</ele>
        <time>2019-07-17T13:18:47Z</time>
      </trkpt>
      <trkpt lat="48.18728" lon="-2.86119">
        <ele>140.898438</ele>
        <time>2019-07-17T13:18:44Z</time>
      </trkpt>
      <trkpt lat="48.18719" lon="-2.86123">
        <ele>140.597656</ele>
        <time>2019-07-17T13:18:41Z</time>
      </trkpt>
      <trkpt lat="48.187" lon="-2.86157">
        <ele>140.796875</ele>
        <time>2019-07-17T13:18:32Z</time>
      </trkpt>
      <trkpt lat="48.18694" lon="-2.86168">
        <ele>140.699219</ele>
        <time>2019-07-17T13:18:29Z</time>
      </trkpt>
      <trkpt lat="48.18689" lon="-2.86183">
        <ele>140.5</ele>
        <time>2019-07-17T13:18:25Z</time>
      </trkpt>
      <trkpt lat="48.18688" lon="-2.86198">
        <ele>141.097656</ele>
        <time>2019-07-17T13:18:21Z</time>
      </trkpt>
      <trkpt lat="48.18689" lon="-2.86211">
        <ele>141.097656</ele>
        <time>2019-07-17T13:18:18Z</time>
      </trkpt>
      <trkpt lat="48.18689" lon="-2.86229">
        <ele>141.296875</ele>
        <time>2019-07-17T13:18:13Z</time>
      </trkpt>
      <trkpt lat="48.18686" lon="-2.86242">
        <ele>142.898438</ele>
        <time>2019-07-17T13:18:08Z</time>
      </trkpt>
      <trkpt lat="48.18679" lon="-2.86252">
        <ele>143.597656</ele>
        <time>2019-07-17T13:18:02Z</time>
      </trkpt>
      <trkpt lat="48.18669" lon="-2.86256">
        <ele>143.898438</ele>
        <time>2019-07-17T13:17:56Z</time>
      </trkpt>
      <trkpt lat="48.1866" lon="-2.86258">
        <ele>144.699219</ele>
        <time>2019-07-17T13:17:51Z</time>
      </trkpt>
      <trkpt lat="48.18651" lon="-2.86256">
        <ele>144.097656</ele>
        <time>2019-07-17T13:17:47Z</time>
      </trkpt>
      <trkpt lat="48.18639" lon="-2.86256">
        <ele>142.898438</ele>
        <time>2019-07-17T13:17:44Z</time>
      </trkpt>
      <trkpt lat="48.18627" lon="-2.86256">
        <ele>142.898438</ele>
        <time>2019-07-17T13:17:41Z</time>
      </trkpt>
      <trkpt lat="48.18616" lon="-2.86254">
        <ele>143.199219</ele>
        <time>2019-07-17T13:17:38Z</time>
      </trkpt>
      <trkpt lat="48.18604" lon="-2.86247">
        <ele>142.699219</ele>
        <time>2019-07-17T13:17:35Z</time>
      </trkpt>
      <trkpt lat="48.18593" lon="-2.86238">
        <ele>142.597656</ele>
        <time>2019-07-17T13:17:32Z</time>
      </trkpt>
      <trkpt lat="48.18574" lon="-2.86221">
        <ele>143.398438</ele>
        <time>2019-07-17T13:17:26Z</time>
      </trkpt>
      <trkpt lat="48.18565" lon="-2.86213">
        <ele>144</ele>
        <time>2019-07-17T13:17:23Z</time>
      </trkpt>
      <trkpt lat="48.18558" lon="-2.86203">
        <ele>145.296875</ele>
        <time>2019-07-17T13:17:20Z</time>
      </trkpt>
      <trkpt lat="48.18554" lon="-2.8619">
        <ele>145.097656</ele>
        <time>2019-07-17T13:17:17Z</time>
      </trkpt>
      <trkpt lat="48.18555" lon="-2.86175">
        <ele>144.898438</ele>
        <time>2019-07-17T13:17:14Z</time>
      </trkpt>
      <trkpt lat="48.18556" lon="-2.86161">
        <ele>144.898438</ele>
        <time>2019-07-17T13:17:11Z</time>
      </trkpt>
      <trkpt lat="48.18557" lon="-2.86146">
        <ele>144.898438</ele>
        <time>2019-07-17T13:17:07Z</time>
      </trkpt>
      <trkpt lat="48.18558" lon="-2.86131">
        <ele>146.097656</ele>
        <time>2019-07-17T13:17:03Z</time>
      </trkpt>
      <trkpt lat="48.18559" lon="-2.86117">
        <ele>145.796875</ele>
        <time>2019-07-17T13:17:00Z</time>
      </trkpt>
      <trkpt lat="48.18558" lon="-2.86103">
        <ele>144.898438</ele>
        <time>2019-07-17T13:16:57Z</time>
      </trkpt>
      <trkpt lat="48.18556" lon="-2.8609">
        <ele>144.199219</ele>
        <time>2019-07-17T13:16:54Z</time>
      </trkpt>
      <trkpt lat="48.18551" lon="-2.86075">
        <ele>144.5</ele>
        <time>2019-07-17T13:16:50Z</time>
      </trkpt>
      <trkpt lat="48.18547" lon="-2.8606">
        <ele>145</ele>
        <time>2019-07-17T13:16:46Z</time>
      </trkpt>
      <trkpt lat="48.18541" lon="-2.86046">
        <ele>145.5</ele>
        <time>2019-07-17T13:16:42Z</time>
      </trkpt>
      <trkpt lat="48.18532" lon="-2.86038">
        <ele>145.296875</ele>
        <time>2019-07-17T13:16:39Z</time>
      </trkpt>
      <trkpt lat="48.185" lon="-2.8602">
        <ele>143.097656</ele>
        <time>2019-07-17T13:16:30Z</time>
      </trkpt>
      <trkpt lat="48.18489" lon="-2.86013">
        <ele>142.296875</ele>
        <time>2019-07-17T13:16:27Z</time>
      </trkpt>
      <trkpt lat="48.18478" lon="-2.86008">
        <ele>142</ele>
        <time>2019-07-17T13:16:24Z</time>
      </trkpt>
      <trkpt lat="48.18468" lon="-2.86007">
        <ele>143.097656</ele>
        <time>2019-07-17T13:16:21Z</time>
      </trkpt>
      <trkpt lat="48.18435" lon="-2.8602">
        <ele>144.398438</ele>
        <time>2019-07-17T13:16:12Z</time>
      </trkpt>
      <trkpt lat="48.18413" lon="-2.86032">
        <ele>144.398438</ele>
        <time>2019-07-17T13:16:06Z</time>
      </trkpt>
      <trkpt lat="48.18404" lon="-2.86037">
        <ele>144.898438</ele>
        <time>2019-07-17T13:16:01Z</time>
      </trkpt>
      <trkpt lat="48.18388" lon="-2.86053">
        <ele>145</ele>
        <time>2019-07-17T13:15:55Z</time>
      </trkpt>
      <trkpt lat="48.18378" lon="-2.86061">
        <ele>145.5</ele>
        <time>2019-07-17T13:15:52Z</time>
      </trkpt>
      <trkpt lat="48.18346" lon="-2.86066">
        <ele>144.296875</ele>
        <time>2019-07-17T13:15:42Z</time>
      </trkpt>
      <trkpt lat="48.18226" lon="-2.86099">
        <ele>147.898438</ele>
        <time>2019-07-17T13:15:15Z</time>
      </trkpt>
      <trkpt lat="48.18212" lon="-2.86102">
        <ele>148.5</ele>
        <time>2019-07-17T13:15:12Z</time>
      </trkpt>
      <trkpt lat="48.18" lon="-2.86104">
        <ele>145.398438</ele>
        <time>2019-07-17T13:13:57Z</time>
      </trkpt>
      <trkpt lat="48.17969" lon="-2.86108">
        <ele>141.898438</ele>
        <time>2019-07-17T13:13:44Z</time>
      </trkpt>
      <trkpt lat="48.17949" lon="-2.86107">
        <ele>140.597656</ele>
        <time>2019-07-17T13:13:36Z</time>
      </trkpt>
      <trkpt lat="48.1794" lon="-2.86108">
        <ele>139.296875</ele>
        <time>2019-07-17T13:13:33Z</time>
      </trkpt>
      <trkpt lat="48.1793" lon="-2.86113">
        <ele>138.699219</ele>
        <time>2019-07-17T13:13:30Z</time>
      </trkpt>
      <trkpt lat="48.17923" lon="-2.86124">
        <ele>138.699219</ele>
        <time>2019-07-17T13:13:26Z</time>
      </trkpt>
      <trkpt lat="48.17917" lon="-2.86137">
        <ele>138.796875</ele>
        <time>2019-07-17T13:13:21Z</time>
      </trkpt>
      <trkpt lat="48.17914" lon="-2.86152">
        <ele>138.898438</ele>
        <time>2019-07-17T13:13:17Z</time>
      </trkpt>
      <trkpt lat="48.17912" lon="-2.86197">
        <ele>138.199219</ele>
        <time>2019-07-17T13:13:08Z</time>
      </trkpt>
      <trkpt lat="48.17912" lon="-2.86213">
        <ele>137.699219</ele>
        <time>2019-07-17T13:13:05Z</time>
      </trkpt>
      <trkpt lat="48.17936" lon="-2.8642">
        <ele>136.5</ele>
        <time>2019-07-17T13:12:25Z</time>
      </trkpt>
      <trkpt lat="48.17953" lon="-2.86548">
        <ele>135.5</ele>
        <time>2019-07-17T13:12:00Z</time>
      </trkpt>
      <trkpt lat="48.17956" lon="-2.86566">
        <ele>134.597656</ele>
        <time>2019-07-17T13:11:57Z</time>
      </trkpt>
      <trkpt lat="48.17976" lon="-2.86658">
        <ele>136</ele>
        <time>2019-07-17T13:11:38Z</time>
      </trkpt>
      <trkpt lat="48.1798" lon="-2.86673">
        <ele>137.796875</ele>
        <time>2019-07-17T13:11:35Z</time>
      </trkpt>
      <trkpt lat="48.17984" lon="-2.86688">
        <ele>138.199219</ele>
        <time>2019-07-17T13:11:32Z</time>
      </trkpt>
      <trkpt lat="48.17991" lon="-2.867">
        <ele>138.199219</ele>
        <time>2019-07-17T13:11:29Z</time>
      </trkpt>
      <trkpt lat="48.18028" lon="-2.86737">
        <ele>138.597656</ele>
        <time>2019-07-17T13:11:17Z</time>
      </trkpt>
      <trkpt lat="48.18038" lon="-2.86747">
        <ele>138.398438</ele>
        <time>2019-07-17T13:11:14Z</time>
      </trkpt>
      <trkpt lat="48.18046" lon="-2.86757">
        <ele>138.097656</ele>
        <time>2019-07-17T13:11:11Z</time>
      </trkpt>
      <trkpt lat="48.18052" lon="-2.86769">
        <ele>138.199219</ele>
        <time>2019-07-17T13:11:08Z</time>
      </trkpt>
      <trkpt lat="48.18056" lon="-2.86784">
        <ele>138.296875</ele>
        <time>2019-07-17T13:11:05Z</time>
      </trkpt>
      <trkpt lat="48.18079" lon="-2.86899">
        <ele>138.296875</ele>
        <time>2019-07-17T13:10:44Z</time>
      </trkpt>
      <trkpt lat="48.18082" lon="-2.86915">
        <ele>137.796875</ele>
        <time>2019-07-17T13:10:41Z</time>
      </trkpt>
      <trkpt lat="48.18083" lon="-2.86933">
        <ele>137.199219</ele>
        <time>2019-07-17T13:10:38Z</time>
      </trkpt>
      <trkpt lat="48.18081" lon="-2.8695">
        <ele>136.898438</ele>
        <time>2019-07-17T13:10:35Z</time>
      </trkpt>
      <trkpt lat="48.18073" lon="-2.87013">
        <ele>136.199219</ele>
        <time>2019-07-17T13:10:23Z</time>
      </trkpt>
      <trkpt lat="48.18066" lon="-2.87061">
        <ele>136.699219</ele>
        <time>2019-07-17T13:10:14Z</time>
      </trkpt>
      <trkpt lat="48.18064" lon="-2.87076">
        <ele>137.296875</ele>
        <time>2019-07-17T13:10:11Z</time>
      </trkpt>
      <trkpt lat="48.18062" lon="-2.87093">
        <ele>137.398438</ele>
        <time>2019-07-17T13:10:08Z</time>
      </trkpt>
      <trkpt lat="48.1806" lon="-2.87141">
        <ele>136.597656</ele>
        <time>2019-07-17T13:09:59Z</time>
      </trkpt>
      <trkpt lat="48.1806" lon="-2.87157">
        <ele>136.597656</ele>
        <time>2019-07-17T13:09:56Z</time>
      </trkpt>
      <trkpt lat="48.18062" lon="-2.87173">
        <ele>136.097656</ele>
        <time>2019-07-17T13:09:53Z</time>
      </trkpt>
      <trkpt lat="48.1807" lon="-2.87205">
        <ele>135.5</ele>
        <time>2019-07-17T13:09:46Z</time>
      </trkpt>
      <trkpt lat="48.18074" lon="-2.87221">
        <ele>135.796875</ele>
        <time>2019-07-17T13:09:42Z</time>
      </trkpt>
      <trkpt lat="48.1807" lon="-2.87238">
        <ele>137.199219</ele>
        <time>2019-07-17T13:09:38Z</time>
      </trkpt>
      <trkpt lat="48.18063" lon="-2.87247">
        <ele>137.398438</ele>
        <time>2019-07-17T13:09:35Z</time>
      </trkpt>
      <trkpt lat="48.18054" lon="-2.87251">
        <ele>137.796875</ele>
        <time>2019-07-17T13:09:32Z</time>
      </trkpt>
      <trkpt lat="48.18044" lon="-2.8725">
        <ele>137.796875</ele>
        <time>2019-07-17T13:09:29Z</time>
      </trkpt>
      <trkpt lat="48.18" lon="-2.87225">
        <ele>136.097656</ele>
        <time>2019-07-17T13:09:17Z</time>
      </trkpt>
      <trkpt lat="48.17987" lon="-2.87218">
        <ele>135.296875</ele>
        <time>2019-07-17T13:09:14Z</time>
      </trkpt>
      <trkpt lat="48.17978" lon="-2.87207">
        <ele>134.699219</ele>
        <time>2019-07-17T13:09:11Z</time>
      </trkpt>
      <trkpt lat="48.17975" lon="-2.87192">
        <ele>134.898438</ele>
        <time>2019-07-17T13:09:08Z</time>
      </trkpt>
      <trkpt lat="48.17976" lon="-2.87178">
        <ele>134.699219</ele>
        <time>2019-07-17T13:09:05Z</time>
      </trkpt>
      <trkpt lat="48.17981" lon="-2.87147">
        <ele>134.398438</ele>
        <time>2019-07-17T13:08:58Z</time>
      </trkpt>
      <trkpt lat="48.17983" lon="-2.87132">
        <ele>135.5</ele>
        <time>2019-07-17T13:08:54Z</time>
      </trkpt>
      <trkpt lat="48.17983" lon="-2.87116">
        <ele>137.199219</ele>
        <time>2019-07-17T13:08:50Z</time>
      </trkpt>
      <trkpt lat="48.17978" lon="-2.87102">
        <ele>137.699219</ele>
        <time>2019-07-17T13:08:46Z</time>
      </trkpt>
      <trkpt lat="48.17962" lon="-2.87084">
        <ele>137.699219</ele>
        <time>2019-07-17T13:08:40Z</time>
      </trkpt>
      <trkpt lat="48.17955" lon="-2.87073">
        <ele>137.597656</ele>
        <time>2019-07-17T13:08:37Z</time>
      </trkpt>
      <trkpt lat="48.17932" lon="-2.87043">
        <ele>139.199219</ele>
        <time>2019-07-17T13:08:28Z</time>
      </trkpt>
      <trkpt lat="48.17924" lon="-2.87033">
        <ele>139.597656</ele>
        <time>2019-07-17T13:08:25Z</time>
      </trkpt>
      <trkpt lat="48.17916" lon="-2.87025">
        <ele>139.796875</ele>
        <time>2019-07-17T13:08:22Z</time>
      </trkpt>
      <trkpt lat="48.17907" lon="-2.87019">
        <ele>140.199219</ele>
        <time>2019-07-17T13:08:19Z</time>
      </trkpt>
      <trkpt lat="48.17885" lon="-2.87015">
        <ele>140</ele>
        <time>2019-07-17T13:08:13Z</time>
      </trkpt>
      <trkpt lat="48.17874" lon="-2.87012">
        <ele>140</ele>
        <time>2019-07-17T13:08:10Z</time>
      </trkpt>
      <trkpt lat="48.17863" lon="-2.87007">
        <ele>139.699219</ele>
        <time>2019-07-17T13:08:07Z</time>
      </trkpt>
      <trkpt lat="48.17853" lon="-2.87">
        <ele>139.699219</ele>
        <time>2019-07-17T13:08:04Z</time>
      </trkpt>
      <trkpt lat="48.17843" lon="-2.86992">
        <ele>139.898438</ele>
        <time>2019-07-17T13:08:01Z</time>
      </trkpt>
      <trkpt lat="48.17834" lon="-2.86984">
        <ele>140</ele>
        <time>2019-07-17T13:07:58Z</time>
      </trkpt>
      <trkpt lat="48.17825" lon="-2.86974">
        <ele>139.898438</ele>
        <time>2019-07-17T13:07:55Z</time>
      </trkpt>
      <trkpt lat="48.17818" lon="-2.86963">
        <ele>140</ele>
        <time>2019-07-17T13:07:52Z</time>
      </trkpt>
      <trkpt lat="48.17805" lon="-2.86936">
        <ele>139.796875</ele>
        <time>2019-07-17T13:07:46Z</time>
      </trkpt>
      <trkpt lat="48.17799" lon="-2.86923">
        <ele>139.796875</ele>
        <time>2019-07-17T13:07:43Z</time>
      </trkpt>
      <trkpt lat="48.17795" lon="-2.86909">
        <ele>139.597656</ele>
        <time>2019-07-17T13:07:40Z</time>
      </trkpt>
      <trkpt lat="48.17794" lon="-2.86893">
        <ele>139.5</ele>
        <time>2019-07-17T13:07:37Z</time>
      </trkpt>
      <trkpt lat="48.17797" lon="-2.86861">
        <ele>139</ele>
        <time>2019-07-17T13:07:31Z</time>
      </trkpt>
      <trkpt lat="48.178" lon="-2.86814">
        <ele>138.898438</ele>
        <time>2019-07-17T13:07:22Z</time>
      </trkpt>
      <trkpt lat="48.17801" lon="-2.86799">
        <ele>139.699219</ele>
        <time>2019-07-17T13:07:19Z</time>
      </trkpt>
      <trkpt lat="48.178" lon="-2.86782">
        <ele>140.296875</ele>
        <time>2019-07-17T13:07:15Z</time>
      </trkpt>
      <trkpt lat="48.17797" lon="-2.86769">
        <ele>140.398438</ele>
        <time>2019-07-17T13:07:12Z</time>
      </trkpt>
      <trkpt lat="48.17788" lon="-2.8676">
        <ele>140</ele>
        <time>2019-07-17T13:07:09Z</time>
      </trkpt>
      <trkpt lat="48.17734" lon="-2.8675">
        <ele>136.5</ele>
        <time>2019-07-17T13:06:54Z</time>
      </trkpt>
      <trkpt lat="48.17723" lon="-2.86748">
        <ele>135.699219</ele>
        <time>2019-07-17T13:06:51Z</time>
      </trkpt>
      <trkpt lat="48.17713" lon="-2.86743">
        <ele>134.898438</ele>
        <time>2019-07-17T13:06:48Z</time>
      </trkpt>
      <trkpt lat="48.17694" lon="-2.86727">
        <ele>134.199219</ele>
        <time>2019-07-17T13:06:42Z</time>
      </trkpt>
      <trkpt lat="48.17676" lon="-2.86711">
        <ele>134.296875</ele>
        <time>2019-07-17T13:06:36Z</time>
      </trkpt>
      <trkpt lat="48.17668" lon="-2.86703">
        <ele>135.097656</ele>
        <time>2019-07-17T13:06:33Z</time>
      </trkpt>
      <trkpt lat="48.17644" lon="-2.8666">
        <ele>136.199219</ele>
        <time>2019-07-17T13:06:21Z</time>
      </trkpt>
      <trkpt lat="48.17614" lon="-2.86608">
        <ele>138</ele>
        <time>2019-07-17T13:06:09Z</time>
      </trkpt>
      <trkpt lat="48.17606" lon="-2.86596">
        <ele>138.296875</ele>
        <time>2019-07-17T13:06:06Z</time>
      </trkpt>
      <trkpt lat="48.17597" lon="-2.86586">
        <ele>138.796875</ele>
        <time>2019-07-17T13:06:03Z</time>
      </trkpt>
      <trkpt lat="48.17585" lon="-2.86582">
        <ele>139.699219</ele>
        <time>2019-07-17T13:06:00Z</time>
      </trkpt>
      <trkpt lat="48.17566" lon="-2.86585">
        <ele>141.296875</ele>
        <time>2019-07-17T13:05:53Z</time>
      </trkpt>
      <trkpt lat="48.17557" lon="-2.86586">
        <ele>141.5</ele>
        <time>2019-07-17T13:05:48Z</time>
      </trkpt>
      <trkpt lat="48.17525" lon="-2.86586">
        <ele>142.398438</ele>
        <time>2019-07-17T13:05:36Z</time>
      </trkpt>
      <trkpt lat="48.17516" lon="-2.86586">
        <ele>141.296875</ele>
        <time>2019-07-17T13:05:33Z</time>
      </trkpt>
      <trkpt lat="48.17505" lon="-2.86581">
        <ele>140</ele>
        <time>2019-07-17T13:05:29Z</time>
      </trkpt>
      <trkpt lat="48.17496" lon="-2.86577">
        <ele>138.398438</ele>
        <time>2019-07-17T13:05:26Z</time>
      </trkpt>
      <trkpt lat="48.17486" lon="-2.86575">
        <ele>136.898438</ele>
        <time>2019-07-17T13:05:22Z</time>
      </trkpt>
      <trkpt lat="48.17475" lon="-2.86571">
        <ele>135</ele>
        <time>2019-07-17T13:05:18Z</time>
      </trkpt>
      <trkpt lat="48.17463" lon="-2.86567">
        <ele>132.597656</ele>
        <time>2019-07-17T13:05:14Z</time>
      </trkpt>
      <trkpt lat="48.17454" lon="-2.86567">
        <ele>130.199219</ele>
        <time>2019-07-17T13:05:11Z</time>
      </trkpt>
      <trkpt lat="48.17445" lon="-2.86573">
        <ele>128.597656</ele>
        <time>2019-07-17T13:05:08Z</time>
      </trkpt>
      <trkpt lat="48.17428" lon="-2.86591">
        <ele>128</ele>
        <time>2019-07-17T13:05:02Z</time>
      </trkpt>
      <trkpt lat="48.17418" lon="-2.866">
        <ele>128.296875</ele>
        <time>2019-07-17T13:04:59Z</time>
      </trkpt>
      <trkpt lat="48.17411" lon="-2.86613">
        <ele>128.296875</ele>
        <time>2019-07-17T13:04:56Z</time>
      </trkpt>
      <trkpt lat="48.17403" lon="-2.86642">
        <ele>131</ele>
        <time>2019-07-17T13:04:50Z</time>
      </trkpt>
      <trkpt lat="48.17399" lon="-2.86657">
        <ele>131.898438</ele>
        <time>2019-07-17T13:04:47Z</time>
      </trkpt>
      <trkpt lat="48.17394" lon="-2.8667">
        <ele>132.199219</ele>
        <time>2019-07-17T13:04:44Z</time>
      </trkpt>
      <trkpt lat="48.17373" lon="-2.86704">
        <ele>134.5</ele>
        <time>2019-07-17T13:04:34Z</time>
      </trkpt>
      <trkpt lat="48.17344" lon="-2.86756">
        <ele>132.699219</ele>
        <time>2019-07-17T13:04:22Z</time>
      </trkpt>
      <trkpt lat="48.17336" lon="-2.86769">
        <ele>132.597656</ele>
        <time>2019-07-17T13:04:19Z</time>
      </trkpt>
      <trkpt lat="48.1733" lon="-2.86784">
        <ele>133.097656</ele>
        <time>2019-07-17T13:04:16Z</time>
      </trkpt>
      <trkpt lat="48.17313" lon="-2.86832">
        <ele>133.796875</ele>
        <time>2019-07-17T13:04:07Z</time>
      </trkpt>
      <trkpt lat="48.17309" lon="-2.86847">
        <ele>133.199219</ele>
        <time>2019-07-17T13:04:04Z</time>
      </trkpt>
      <trkpt lat="48.17306" lon="-2.86862">
        <ele>133.398438</ele>
        <time>2019-07-17T13:04:01Z</time>
      </trkpt>
      <trkpt lat="48.17303" lon="-2.86876">
        <ele>134.597656</ele>
        <time>2019-07-17T13:03:58Z</time>
      </trkpt>
      <trkpt lat="48.17298" lon="-2.8689">
        <ele>135.5</ele>
        <time>2019-07-17T13:03:55Z</time>
      </trkpt>
      <trkpt lat="48.17294" lon="-2.86904">
        <ele>135.898438</ele>
        <time>2019-07-17T13:03:52Z</time>
      </trkpt>
      <trkpt lat="48.1729" lon="-2.8692">
        <ele>137.199219</ele>
        <time>2019-07-17T13:03:49Z</time>
      </trkpt>
      <trkpt lat="48.1729" lon="-2.86937">
        <ele>137.097656</ele>
        <time>2019-07-17T13:03:46Z</time>
      </trkpt>
      <trkpt lat="48.17296" lon="-2.8697">
        <ele>138.097656</ele>
        <time>2019-07-17T13:03:40Z</time>
      </trkpt>
      <trkpt lat="48.17297" lon="-2.86984">
        <ele>138.097656</ele>
        <time>2019-07-17T13:03:37Z</time>
      </trkpt>
      <trkpt lat="48.17296" lon="-2.87">
        <ele>137.199219</ele>
        <time>2019-07-17T13:03:34Z</time>
      </trkpt>
      <trkpt lat="48.1729" lon="-2.87014">
        <ele>136</ele>
        <time>2019-07-17T13:03:31Z</time>
      </trkpt>
      <trkpt lat="48.17286" lon="-2.87027">
        <ele>134.898438</ele>
        <time>2019-07-17T13:03:28Z</time>
      </trkpt>
      <trkpt lat="48.17283" lon="-2.87044">
        <ele>135</ele>
        <time>2019-07-17T13:03:25Z</time>
      </trkpt>
      <trkpt lat="48.17285" lon="-2.871">
        <ele>132.199219</ele>
        <time>2019-07-17T13:03:16Z</time>
      </trkpt>
      <trkpt lat="48.17286" lon="-2.87133">
        <ele>131.296875</ele>
        <time>2019-07-17T13:03:10Z</time>
      </trkpt>
      <trkpt lat="48.17286" lon="-2.87148">
        <ele>130.699219</ele>
        <time>2019-07-17T13:03:07Z</time>
      </trkpt>
      <trkpt lat="48.17288" lon="-2.87165">
        <ele>130.097656</ele>
        <time>2019-07-17T13:03:04Z</time>
      </trkpt>
      <trkpt lat="48.1729" lon="-2.87183">
        <ele>130.699219</ele>
        <time>2019-07-17T13:03:01Z</time>
      </trkpt>
      <trkpt lat="48.17323" lon="-2.87274">
        <ele>132.097656</ele>
        <time>2019-07-17T13:02:45Z</time>
      </trkpt>
      <trkpt lat="48.17345" lon="-2.8733">
        <ele>132</ele>
        <time>2019-07-17T13:02:34Z</time>
      </trkpt>
      <trkpt lat="48.17352" lon="-2.87347">
        <ele>132.5</ele>
        <time>2019-07-17T13:02:31Z</time>
      </trkpt>
      <trkpt lat="48.17358" lon="-2.87358">
        <ele>133.097656</ele>
        <time>2019-07-17T13:02:29Z</time>
      </trkpt>
      <trkpt lat="48.17368" lon="-2.87371">
        <ele>133.5</ele>
        <time>2019-07-17T13:02:26Z</time>
      </trkpt>
      <trkpt lat="48.17396" lon="-2.87402">
        <ele>136.097656</ele>
        <time>2019-07-17T13:02:18Z</time>
      </trkpt>
      <trkpt lat="48.17417" lon="-2.87424">
        <ele>136.5</ele>
        <time>2019-07-17T13:02:12Z</time>
      </trkpt>
      <trkpt lat="48.17426" lon="-2.87436">
        <ele>136.296875</ele>
        <time>2019-07-17T13:02:08Z</time>
      </trkpt>
      <trkpt lat="48.17432" lon="-2.8745">
        <ele>136.597656</ele>
        <time>2019-07-17T13:02:02Z</time>
      </trkpt>
      <trkpt lat="48.17432" lon="-2.87467">
        <ele>137.699219</ele>
        <time>2019-07-17T13:01:58Z</time>
      </trkpt>
      <trkpt lat="48.17429" lon="-2.87482">
        <ele>137.699219</ele>
        <time>2019-07-17T13:01:55Z</time>
      </trkpt>
      <trkpt lat="48.1742" lon="-2.8751">
        <ele>138.699219</ele>
        <time>2019-07-17T13:01:49Z</time>
      </trkpt>
      <trkpt lat="48.17415" lon="-2.87525">
        <ele>139.796875</ele>
        <time>2019-07-17T13:01:46Z</time>
      </trkpt>
      <trkpt lat="48.17412" lon="-2.87541">
        <ele>140.398438</ele>
        <time>2019-07-17T13:01:43Z</time>
      </trkpt>
      <trkpt lat="48.17413" lon="-2.87558">
        <ele>140</ele>
        <time>2019-07-17T13:01:40Z</time>
      </trkpt>
      <trkpt lat="48.17421" lon="-2.87605">
        <ele>138.5</ele>
        <time>2019-07-17T13:01:33Z</time>
      </trkpt>
      <trkpt lat="48.17426" lon="-2.87641">
        <ele>137.398438</ele>
        <time>2019-07-17T13:01:27Z</time>
      </trkpt>
      <trkpt lat="48.17433" lon="-2.87705">
        <ele>137.5</ele>
        <time>2019-07-17T13:01:15Z</time>
      </trkpt>
      <trkpt lat="48.17434" lon="-2.87721">
        <ele>139.597656</ele>
        <time>2019-07-17T13:01:12Z</time>
      </trkpt>
      <trkpt lat="48.17438" lon="-2.87737">
        <ele>140.199219</ele>
        <time>2019-07-17T13:01:09Z</time>
      </trkpt>
      <trkpt lat="48.17446" lon="-2.87816">
        <ele>134.898438</ele>
        <time>2019-07-17T13:00:50Z</time>
      </trkpt>
      <trkpt lat="48.17447" lon="-2.87831">
        <ele>133.898438</ele>
        <time>2019-07-17T13:00:47Z</time>
      </trkpt>
      <trkpt lat="48.17449" lon="-2.87848">
        <ele>133.5</ele>
        <time>2019-07-17T13:00:44Z</time>
      </trkpt>
      <trkpt lat="48.17452" lon="-2.87864">
        <ele>132.699219</ele>
        <time>2019-07-17T13:00:41Z</time>
      </trkpt>
      <trkpt lat="48.17466" lon="-2.87904">
        <ele>132.898438</ele>
        <time>2019-07-17T13:00:32Z</time>
      </trkpt>
      <trkpt lat="48.17471" lon="-2.8792">
        <ele>134.699219</ele>
        <time>2019-07-17T13:00:28Z</time>
      </trkpt>
      <trkpt lat="48.17472" lon="-2.87938">
        <ele>136.097656</ele>
        <time>2019-07-17T13:00:24Z</time>
      </trkpt>
      <trkpt lat="48.17466" lon="-2.87966">
        <ele>135.199219</ele>
        <time>2019-07-17T13:00:18Z</time>
      </trkpt>
      <trkpt lat="48.17462" lon="-2.87982">
        <ele>134.898438</ele>
        <time>2019-07-17T13:00:15Z</time>
      </trkpt>
      <trkpt lat="48.17459" lon="-2.87998">
        <ele>135.796875</ele>
        <time>2019-07-17T13:00:12Z</time>
      </trkpt>
      <trkpt lat="48.17455" lon="-2.88047">
        <ele>140.597656</ele>
        <time>2019-07-17T13:00:03Z</time>
      </trkpt>
      <trkpt lat="48.17454" lon="-2.88065">
        <ele>141.699219</ele>
        <time>2019-07-17T13:00:00Z</time>
      </trkpt>
      <trkpt lat="48.1745" lon="-2.88082">
        <ele>142.199219</ele>
        <time>2019-07-17T12:59:57Z</time>
      </trkpt>
      <trkpt lat="48.17443" lon="-2.88095">
        <ele>142.597656</ele>
        <time>2019-07-17T12:59:54Z</time>
      </trkpt>
      <trkpt lat="48.17436" lon="-2.88107">
        <ele>143.199219</ele>
        <time>2019-07-17T12:59:51Z</time>
      </trkpt>
      <trkpt lat="48.17412" lon="-2.88144">
        <ele>145.097656</ele>
        <time>2019-07-17T12:59:42Z</time>
      </trkpt>
      <trkpt lat="48.17389" lon="-2.88179">
        <ele>148.796875</ele>
        <time>2019-07-17T12:59:33Z</time>
      </trkpt>
      <trkpt lat="48.17381" lon="-2.8819">
        <ele>149.898438</ele>
        <time>2019-07-17T12:59:30Z</time>
      </trkpt>
      <trkpt lat="48.17371" lon="-2.88197">
        <ele>151.199219</ele>
        <time>2019-07-17T12:59:27Z</time>
      </trkpt>
      <trkpt lat="48.17359" lon="-2.88196">
        <ele>151.699219</ele>
        <time>2019-07-17T12:59:24Z</time>
      </trkpt>
      <trkpt lat="48.17347" lon="-2.88191">
        <ele>151.796875</ele>
        <time>2019-07-17T12:59:21Z</time>
      </trkpt>
      <trkpt lat="48.17336" lon="-2.88185">
        <ele>152.097656</ele>
        <time>2019-07-17T12:59:18Z</time>
      </trkpt>
      <trkpt lat="48.17325" lon="-2.88178">
        <ele>152.796875</ele>
        <time>2019-07-17T12:59:15Z</time>
      </trkpt>
      <trkpt lat="48.17316" lon="-2.88167">
        <ele>153.796875</ele>
        <time>2019-07-17T12:59:12Z</time>
      </trkpt>
      <trkpt lat="48.17311" lon="-2.88153">
        <ele>154.398438</ele>
        <time>2019-07-17T12:59:09Z</time>
      </trkpt>
      <trkpt lat="48.17291" lon="-2.88052">
        <ele>151.699219</ele>
        <time>2019-07-17T12:58:51Z</time>
      </trkpt>
      <trkpt lat="48.17283" lon="-2.8801">
        <ele>147.5</ele>
        <time>2019-07-17T12:58:42Z</time>
      </trkpt>
      <trkpt lat="48.17281" lon="-2.87993">
        <ele>147.597656</ele>
        <time>2019-07-17T12:58:39Z</time>
      </trkpt>
      <trkpt lat="48.17277" lon="-2.87977">
        <ele>147.097656</ele>
        <time>2019-07-17T12:58:36Z</time>
      </trkpt>
      <trkpt lat="48.17265" lon="-2.87953">
        <ele>144.296875</ele>
        <time>2019-07-17T12:58:30Z</time>
      </trkpt>
      <trkpt lat="48.1726" lon="-2.87938">
        <ele>143</ele>
        <time>2019-07-17T12:58:27Z</time>
      </trkpt>
      <trkpt lat="48.17246" lon="-2.87912">
        <ele>142</ele>
        <time>2019-07-17T12:58:21Z</time>
      </trkpt>
      <trkpt lat="48.17241" lon="-2.879">
        <ele>141.597656</ele>
        <time>2019-07-17T12:58:18Z</time>
      </trkpt>
      <trkpt lat="48.17235" lon="-2.87886">
        <ele>140</ele>
        <time>2019-07-17T12:58:15Z</time>
      </trkpt>
      <trkpt lat="48.17231" lon="-2.87872">
        <ele>139.097656</ele>
        <time>2019-07-17T12:58:12Z</time>
      </trkpt>
      <trkpt lat="48.1723" lon="-2.87855">
        <ele>138.796875</ele>
        <time>2019-07-17T12:58:08Z</time>
      </trkpt>
      <trkpt lat="48.17225" lon="-2.87841">
        <ele>138.097656</ele>
        <time>2019-07-17T12:58:04Z</time>
      </trkpt>
      <trkpt lat="48.17218" lon="-2.8783">
        <ele>136.699219</ele>
        <time>2019-07-17T12:58:01Z</time>
      </trkpt>
      <trkpt lat="48.17209" lon="-2.87822">
        <ele>135.398438</ele>
        <time>2019-07-17T12:57:58Z</time>
      </trkpt>
      <trkpt lat="48.17199" lon="-2.87815">
        <ele>134.398438</ele>
        <time>2019-07-17T12:57:55Z</time>
      </trkpt>
      <trkpt lat="48.1719" lon="-2.87812">
        <ele>133.699219</ele>
        <time>2019-07-17T12:57:53Z</time>
      </trkpt>
      <trkpt lat="48.1697" lon="-2.87866">
        <ele>143.5</ele>
        <time>2019-07-17T12:56:52Z</time>
      </trkpt>
      <trkpt lat="48.1694" lon="-2.87876">
        <ele>142.898438</ele>
        <time>2019-07-17T12:56:42Z</time>
      </trkpt>
      <trkpt lat="48.16931" lon="-2.87879">
        <ele>142.898438</ele>
        <time>2019-07-17T12:56:38Z</time>
      </trkpt>
      <trkpt lat="48.16922" lon="-2.8788">
        <ele>143.398438</ele>
        <time>2019-07-17T12:56:34Z</time>
      </trkpt>
      <trkpt lat="48.16883" lon="-2.87889">
        <ele>142.699219</ele>
        <time>2019-07-17T12:56:22Z</time>
      </trkpt>
      <trkpt lat="48.16863" lon="-2.87892">
        <ele>141.699219</ele>
        <time>2019-07-17T12:56:16Z</time>
      </trkpt>
      <trkpt lat="48.16842" lon="-2.87892">
        <ele>140.699219</ele>
        <time>2019-07-17T12:56:10Z</time>
      </trkpt>
      <trkpt lat="48.16831" lon="-2.87892">
        <ele>139.796875</ele>
        <time>2019-07-17T12:56:07Z</time>
      </trkpt>
      <trkpt lat="48.16812" lon="-2.87894">
        <ele>138.398438</ele>
        <time>2019-07-17T12:56:01Z</time>
      </trkpt>
      <trkpt lat="48.16802" lon="-2.87897">
        <ele>138.097656</ele>
        <time>2019-07-17T12:55:58Z</time>
      </trkpt>
      <trkpt lat="48.16792" lon="-2.879">
        <ele>137.898438</ele>
        <time>2019-07-17T12:55:55Z</time>
      </trkpt>
      <trkpt lat="48.16782" lon="-2.87908">
        <ele>137.597656</ele>
        <time>2019-07-17T12:55:52Z</time>
      </trkpt>
      <trkpt lat="48.1676" lon="-2.87937">
        <ele>137.796875</ele>
        <time>2019-07-17T12:55:43Z</time>
      </trkpt>
      <trkpt lat="48.16751" lon="-2.87948">
        <ele>138.398438</ele>
        <time>2019-07-17T12:55:40Z</time>
      </trkpt>
      <trkpt lat="48.16742" lon="-2.87955">
        <ele>138.699219</ele>
        <time>2019-07-17T12:55:37Z</time>
      </trkpt>
      <trkpt lat="48.16731" lon="-2.87957">
        <ele>139.199219</ele>
        <time>2019-07-17T12:55:34Z</time>
      </trkpt>
      <trkpt lat="48.16688" lon="-2.87955">
        <ele>139.796875</ele>
        <time>2019-07-17T12:55:22Z</time>
      </trkpt>
      <trkpt lat="48.16678" lon="-2.87954">
        <ele>140.296875</ele>
        <time>2019-07-17T12:55:19Z</time>
      </trkpt>
      <trkpt lat="48.16669" lon="-2.87952">
        <ele>141.5</ele>
        <time>2019-07-17T12:55:16Z</time>
      </trkpt>
      <trkpt lat="48.1666" lon="-2.87945">
        <ele>142.5</ele>
        <time>2019-07-17T12:55:13Z</time>
      </trkpt>
      <trkpt lat="48.16651" lon="-2.87934">
        <ele>143.199219</ele>
        <time>2019-07-17T12:55:09Z</time>
      </trkpt>
      <trkpt lat="48.16645" lon="-2.87923">
        <ele>144</ele>
        <time>2019-07-17T12:55:06Z</time>
      </trkpt>
      <trkpt lat="48.16641" lon="-2.87908">
        <ele>144.199219</ele>
        <time>2019-07-17T12:55:03Z</time>
      </trkpt>
      <trkpt lat="48.1664" lon="-2.87892">
        <ele>144.296875</ele>
        <time>2019-07-17T12:54:59Z</time>
      </trkpt>
      <trkpt lat="48.16641" lon="-2.87877">
        <ele>144.699219</ele>
        <time>2019-07-17T12:54:54Z</time>
      </trkpt>
      <trkpt lat="48.16647" lon="-2.87863">
        <ele>144.898438</ele>
        <time>2019-07-17T12:54:50Z</time>
      </trkpt>
      <trkpt lat="48.16656" lon="-2.87852">
        <ele>144.398438</ele>
        <time>2019-07-17T12:54:46Z</time>
      </trkpt>
      <trkpt lat="48.16664" lon="-2.87845">
        <ele>143.5</ele>
        <time>2019-07-17T12:54:43Z</time>
      </trkpt>
      <trkpt lat="48.16671" lon="-2.87835">
        <ele>143.097656</ele>
        <time>2019-07-17T12:54:40Z</time>
      </trkpt>
      <trkpt lat="48.16678" lon="-2.87822">
        <ele>143.097656</ele>
        <time>2019-07-17T12:54:37Z</time>
      </trkpt>
      <trkpt lat="48.16681" lon="-2.87806">
        <ele>142.597656</ele>
        <time>2019-07-17T12:54:34Z</time>
      </trkpt>
      <trkpt lat="48.16683" lon="-2.87788">
        <ele>142.199219</ele>
        <time>2019-07-17T12:54:31Z</time>
      </trkpt>
      <trkpt lat="48.16688" lon="-2.87701">
        <ele>144.296875</ele>
        <time>2019-07-17T12:54:16Z</time>
      </trkpt>
      <trkpt lat="48.16688" lon="-2.87684">
        <ele>144.796875</ele>
        <time>2019-07-17T12:54:13Z</time>
      </trkpt>
      <trkpt lat="48.16678" lon="-2.87583">
        <ele>141.597656</ele>
        <time>2019-07-17T12:53:55Z</time>
      </trkpt>
      <trkpt lat="48.16674" lon="-2.87551">
        <ele>140.398438</ele>
        <time>2019-07-17T12:53:49Z</time>
      </trkpt>
      <trkpt lat="48.16665" lon="-2.87446">
        <ele>137.398438</ele>
        <time>2019-07-17T12:53:31Z</time>
      </trkpt>
      <trkpt lat="48.16664" lon="-2.87431">
        <ele>137.597656</ele>
        <time>2019-07-17T12:53:28Z</time>
      </trkpt>
      <trkpt lat="48.16665" lon="-2.87186">
        <ele>136</ele>
        <time>2019-07-17T12:52:43Z</time>
      </trkpt>
      <trkpt lat="48.16665" lon="-2.87172">
        <ele>136.5</ele>
        <time>2019-07-17T12:52:40Z</time>
      </trkpt>
      <trkpt lat="48.16669" lon="-2.87157">
        <ele>136.796875</ele>
        <time>2019-07-17T12:52:36Z</time>
      </trkpt>
      <trkpt lat="48.16681" lon="-2.87132">
        <ele>137.898438</ele>
        <time>2019-07-17T12:52:30Z</time>
      </trkpt>
      <trkpt lat="48.16687" lon="-2.87117">
        <ele>138.097656</ele>
        <time>2019-07-17T12:52:27Z</time>
      </trkpt>
      <trkpt lat="48.16687" lon="-2.87099">
        <ele>138.597656</ele>
        <time>2019-07-17T12:52:24Z</time>
      </trkpt>
      <trkpt lat="48.1668" lon="-2.87089">
        <ele>138.898438</ele>
        <time>2019-07-17T12:52:22Z</time>
      </trkpt>
      <trkpt lat="48.16627" lon="-2.87055">
        <ele>139.796875</ele>
        <time>2019-07-17T12:52:07Z</time>
      </trkpt>
      <trkpt lat="48.16618" lon="-2.8705">
        <ele>140.097656</ele>
        <time>2019-07-17T12:52:04Z</time>
      </trkpt>
      <trkpt lat="48.16535" lon="-2.86996">
        <ele>135.796875</ele>
        <time>2019-07-17T12:51:34Z</time>
      </trkpt>
      <trkpt lat="48.16526" lon="-2.86989">
        <ele>135.796875</ele>
        <time>2019-07-17T12:51:31Z</time>
      </trkpt>
      <trkpt lat="48.16516" lon="-2.86983">
        <ele>135.296875</ele>
        <time>2019-07-17T12:51:28Z</time>
      </trkpt>
      <trkpt lat="48.16504" lon="-2.86979">
        <ele>134</ele>
        <time>2019-07-17T12:51:25Z</time>
      </trkpt>
      <trkpt lat="48.16214" lon="-2.8704">
        <ele>129.296875</ele>
        <time>2019-07-17T12:50:13Z</time>
      </trkpt>
      <trkpt lat="48.16202" lon="-2.87042">
        <ele>129.199219</ele>
        <time>2019-07-17T12:50:10Z</time>
      </trkpt>
      <trkpt lat="48.1619" lon="-2.87047">
        <ele>128.898438</ele>
        <time>2019-07-17T12:50:07Z</time>
      </trkpt>
      <trkpt lat="48.1618" lon="-2.87058">
        <ele>128.5</ele>
        <time>2019-07-17T12:50:04Z</time>
      </trkpt>
      <trkpt lat="48.16162" lon="-2.87083">
        <ele>129.296875</ele>
        <time>2019-07-17T12:49:58Z</time>
      </trkpt>
      <trkpt lat="48.16144" lon="-2.87105">
        <ele>130.097656</ele>
        <time>2019-07-17T12:49:52Z</time>
      </trkpt>
      <trkpt lat="48.16134" lon="-2.87116">
        <ele>130.597656</ele>
        <time>2019-07-17T12:49:49Z</time>
      </trkpt>
      <trkpt lat="48.16115" lon="-2.87135">
        <ele>131.699219</ele>
        <time>2019-07-17T12:49:43Z</time>
      </trkpt>
      <trkpt lat="48.16105" lon="-2.87144">
        <ele>132.699219</ele>
        <time>2019-07-17T12:49:40Z</time>
      </trkpt>
      <trkpt lat="48.16096" lon="-2.87155">
        <ele>133.398438</ele>
        <time>2019-07-17T12:49:37Z</time>
      </trkpt>
      <trkpt lat="48.16082" lon="-2.87179">
        <ele>134.898438</ele>
        <time>2019-07-17T12:49:31Z</time>
      </trkpt>
      <trkpt lat="48.16069" lon="-2.87202">
        <ele>139.699219</ele>
        <time>2019-07-17T12:49:25Z</time>
      </trkpt>
      <trkpt lat="48.16061" lon="-2.87213">
        <ele>142.296875</ele>
        <time>2019-07-17T12:49:21Z</time>
      </trkpt>
      <trkpt lat="48.16052" lon="-2.87218">
        <ele>145.097656</ele>
        <time>2019-07-17T12:49:17Z</time>
      </trkpt>
      <trkpt lat="48.16043" lon="-2.87218">
        <ele>145.097656</ele>
        <time>2019-07-17T12:49:14Z</time>
      </trkpt>
      <trkpt lat="48.16033" lon="-2.87217">
        <ele>145.597656</ele>
        <time>2019-07-17T12:49:11Z</time>
      </trkpt>
      <trkpt lat="48.16021" lon="-2.87211">
        <ele>146.097656</ele>
        <time>2019-07-17T12:49:07Z</time>
      </trkpt>
      <trkpt lat="48.16015" lon="-2.87199">
        <ele>146.597656</ele>
        <time>2019-07-17T12:49:04Z</time>
      </trkpt>
      <trkpt lat="48.16011" lon="-2.87182">
        <ele>146</ele>
        <time>2019-07-17T12:49:01Z</time>
      </trkpt>
      <trkpt lat="48.16012" lon="-2.87163">
        <ele>144.796875</ele>
        <time>2019-07-17T12:48:58Z</time>
      </trkpt>
      <trkpt lat="48.16014" lon="-2.87144">
        <ele>144.296875</ele>
        <time>2019-07-17T12:48:55Z</time>
      </trkpt>
      <trkpt lat="48.16021" lon="-2.87111">
        <ele>141.898438</ele>
        <time>2019-07-17T12:48:49Z</time>
      </trkpt>
      <trkpt lat="48.16034" lon="-2.8705">
        <ele>142.597656</ele>
        <time>2019-07-17T12:48:35Z</time>
      </trkpt>
      <trkpt lat="48.16042" lon="-2.87019">
        <ele>145.5</ele>
        <time>2019-07-17T12:48:29Z</time>
      </trkpt>
      <trkpt lat="48.16055" lon="-2.86966">
        <ele>145.597656</ele>
        <time>2019-07-17T12:48:20Z</time>
      </trkpt>
      <trkpt lat="48.1606" lon="-2.86949">
        <ele>145.5</ele>
        <time>2019-07-17T12:48:17Z</time>
      </trkpt>
      <trkpt lat="48.16086" lon="-2.86893">
        <ele>144.398438</ele>
        <time>2019-07-17T12:48:05Z</time>
      </trkpt>
      <trkpt lat="48.16092" lon="-2.86878">
        <ele>144.699219</ele>
        <time>2019-07-17T12:48:02Z</time>
      </trkpt>
      <trkpt lat="48.161" lon="-2.86849">
        <ele>143</ele>
        <time>2019-07-17T12:47:57Z</time>
      </trkpt>
      <trkpt lat="48.16104" lon="-2.86836">
        <ele>142.398438</ele>
        <time>2019-07-17T12:47:55Z</time>
      </trkpt>
      <trkpt lat="48.16118" lon="-2.86805">
        <ele>141.5</ele>
        <time>2019-07-17T12:47:49Z</time>
      </trkpt>
      <trkpt lat="48.16125" lon="-2.86792">
        <ele>142</ele>
        <time>2019-07-17T12:47:46Z</time>
      </trkpt>
      <trkpt lat="48.16134" lon="-2.86782">
        <ele>142.199219</ele>
        <time>2019-07-17T12:47:43Z</time>
      </trkpt>
      <trkpt lat="48.16154" lon="-2.86766">
        <ele>141.296875</ele>
        <time>2019-07-17T12:47:38Z</time>
      </trkpt>
      <trkpt lat="48.16165" lon="-2.86755">
        <ele>141.5</ele>
        <time>2019-07-17T12:47:35Z</time>
      </trkpt>
      <trkpt lat="48.16171" lon="-2.8674">
        <ele>142</ele>
        <time>2019-07-17T12:47:32Z</time>
      </trkpt>
      <trkpt lat="48.16222" lon="-2.86611">
        <ele>141.898438</ele>
        <time>2019-07-17T12:47:08Z</time>
      </trkpt>
      <trkpt lat="48.16227" lon="-2.86594">
        <ele>141.796875</ele>
        <time>2019-07-17T12:47:05Z</time>
      </trkpt>
      <trkpt lat="48.16232" lon="-2.86576">
        <ele>140.699219</ele>
        <time>2019-07-17T12:47:02Z</time>
      </trkpt>
      <trkpt lat="48.16234" lon="-2.86561">
        <ele>140.097656</ele>
        <time>2019-07-17T12:46:59Z</time>
      </trkpt>
      <trkpt lat="48.16239" lon="-2.86456">
        <ele>139.898438</ele>
        <time>2019-07-17T12:46:41Z</time>
      </trkpt>
      <trkpt lat="48.1624" lon="-2.86439">
        <ele>139.898438</ele>
        <time>2019-07-17T12:46:38Z</time>
      </trkpt>
      <trkpt lat="48.16238" lon="-2.86423">
        <ele>140.097656</ele>
        <time>2019-07-17T12:46:35Z</time>
      </trkpt>
      <trkpt lat="48.16232" lon="-2.86392">
        <ele>140.296875</ele>
        <time>2019-07-17T12:46:29Z</time>
      </trkpt>
      <trkpt lat="48.16218" lon="-2.86281">
        <ele>138.097656</ele>
        <time>2019-07-17T12:46:08Z</time>
      </trkpt>
      <trkpt lat="48.16216" lon="-2.86264">
        <ele>137.699219</ele>
        <time>2019-07-17T12:46:05Z</time>
      </trkpt>
      <trkpt lat="48.16215" lon="-2.86247">
        <ele>137.796875</ele>
        <time>2019-07-17T12:46:02Z</time>
      </trkpt>
      <trkpt lat="48.16215" lon="-2.8623">
        <ele>137.796875</ele>
        <time>2019-07-17T12:45:59Z</time>
      </trkpt>
      <trkpt lat="48.16216" lon="-2.86213">
        <ele>137.296875</ele>
        <time>2019-07-17T12:45:56Z</time>
      </trkpt>
      <trkpt lat="48.1624" lon="-2.86054">
        <ele>138.199219</ele>
        <time>2019-07-17T12:45:29Z</time>
      </trkpt>
      <trkpt lat="48.16242" lon="-2.86037">
        <ele>138</ele>
        <time>2019-07-17T12:45:26Z</time>
      </trkpt>
      <trkpt lat="48.16241" lon="-2.86019">
        <ele>137.796875</ele>
        <time>2019-07-17T12:45:23Z</time>
      </trkpt>
      <trkpt lat="48.16239" lon="-2.86001">
        <ele>137.699219</ele>
        <time>2019-07-17T12:45:20Z</time>
      </trkpt>
      <trkpt lat="48.16234" lon="-2.85984">
        <ele>137.5</ele>
        <time>2019-07-17T12:45:17Z</time>
      </trkpt>
      <trkpt lat="48.16229" lon="-2.85968">
        <ele>137.296875</ele>
        <time>2019-07-17T12:45:14Z</time>
      </trkpt>
      <trkpt lat="48.16223" lon="-2.85955">
        <ele>137</ele>
        <time>2019-07-17T12:45:11Z</time>
      </trkpt>
      <trkpt lat="48.1621" lon="-2.85935">
        <ele>136.5</ele>
        <time>2019-07-17T12:45:05Z</time>
      </trkpt>
      <trkpt lat="48.16203" lon="-2.85924">
        <ele>136.199219</ele>
        <time>2019-07-17T12:45:02Z</time>
      </trkpt>
      <trkpt lat="48.16199" lon="-2.85911">
        <ele>135.898438</ele>
        <time>2019-07-17T12:44:59Z</time>
      </trkpt>
      <trkpt lat="48.16195" lon="-2.85897">
        <ele>135.5</ele>
        <time>2019-07-17T12:44:56Z</time>
      </trkpt>
      <trkpt lat="48.16195" lon="-2.85882">
        <ele>135</ele>
        <time>2019-07-17T12:44:53Z</time>
      </trkpt>
      <trkpt lat="48.16196" lon="-2.85865">
        <ele>134.398438</ele>
        <time>2019-07-17T12:44:50Z</time>
      </trkpt>
      <trkpt lat="48.16198" lon="-2.8585">
        <ele>134.398438</ele>
        <time>2019-07-17T12:44:47Z</time>
      </trkpt>
      <trkpt lat="48.16208" lon="-2.858">
        <ele>136.398438</ele>
        <time>2019-07-17T12:44:38Z</time>
      </trkpt>
      <trkpt lat="48.16233" lon="-2.85697">
        <ele>137</ele>
        <time>2019-07-17T12:44:20Z</time>
      </trkpt>
      <trkpt lat="48.16237" lon="-2.85681">
        <ele>137.097656</ele>
        <time>2019-07-17T12:44:17Z</time>
      </trkpt>
      <trkpt lat="48.16241" lon="-2.85662">
        <ele>137.296875</ele>
        <time>2019-07-17T12:44:14Z</time>
      </trkpt>
      <trkpt lat="48.16254" lon="-2.85536">
        <ele>138.597656</ele>
        <time>2019-07-17T12:43:54Z</time>
      </trkpt>
      <trkpt lat="48.16257" lon="-2.85495">
        <ele>138.796875</ele>
        <time>2019-07-17T12:43:48Z</time>
      </trkpt>
      <trkpt lat="48.16257" lon="-2.85482">
        <ele>138.898438</ele>
        <time>2019-07-17T12:43:46Z</time>
      </trkpt>
      <trkpt lat="48.16255" lon="-2.85447">
        <ele>139.398438</ele>
        <time>2019-07-17T12:43:40Z</time>
      </trkpt>
      <trkpt lat="48.16254" lon="-2.85429">
        <ele>139.199219</ele>
        <time>2019-07-17T12:43:37Z</time>
      </trkpt>
      <trkpt lat="48.16254" lon="-2.85312">
        <ele>135.097656</ele>
        <time>2019-07-17T12:43:16Z</time>
      </trkpt>
      <trkpt lat="48.16254" lon="-2.85295">
        <ele>134.597656</ele>
        <time>2019-07-17T12:43:13Z</time>
      </trkpt>
      <trkpt lat="48.16255" lon="-2.85279">
        <ele>134.398438</ele>
        <time>2019-07-17T12:43:10Z</time>
      </trkpt>
      <trkpt lat="48.1626" lon="-2.85264">
        <ele>134.398438</ele>
        <time>2019-07-17T12:43:07Z</time>
      </trkpt>
      <trkpt lat="48.16268" lon="-2.85252">
        <ele>134.199219</ele>
        <time>2019-07-17T12:43:04Z</time>
      </trkpt>
      <trkpt lat="48.16275" lon="-2.85242">
        <ele>134.199219</ele>
        <time>2019-07-17T12:43:01Z</time>
      </trkpt>
      <trkpt lat="48.16283" lon="-2.85234">
        <ele>134.699219</ele>
        <time>2019-07-17T12:42:58Z</time>
      </trkpt>
      <trkpt lat="48.16293" lon="-2.8523">
        <ele>134.699219</ele>
        <time>2019-07-17T12:42:55Z</time>
      </trkpt>
      <trkpt lat="48.16364" lon="-2.85232">
        <ele>135.699219</ele>
        <time>2019-07-17T12:42:37Z</time>
      </trkpt>
      <trkpt lat="48.16375" lon="-2.85233">
        <ele>136.597656</ele>
        <time>2019-07-17T12:42:34Z</time>
      </trkpt>
      <trkpt lat="48.16385" lon="-2.85236">
        <ele>136.5</ele>
        <time>2019-07-17T12:42:31Z</time>
      </trkpt>
      <trkpt lat="48.16394" lon="-2.85243">
        <ele>135.898438</ele>
        <time>2019-07-17T12:42:28Z</time>
      </trkpt>
      <trkpt lat="48.16404" lon="-2.8525">
        <ele>135.296875</ele>
        <time>2019-07-17T12:42:25Z</time>
      </trkpt>
      <trkpt lat="48.1644" lon="-2.85259">
        <ele>137.097656</ele>
        <time>2019-07-17T12:42:16Z</time>
      </trkpt>
      <trkpt lat="48.16453" lon="-2.85262">
        <ele>137.898438</ele>
        <time>2019-07-17T12:42:13Z</time>
      </trkpt>
      <trkpt lat="48.16463" lon="-2.85263">
        <ele>138.699219</ele>
        <time>2019-07-17T12:42:11Z</time>
      </trkpt>
      <trkpt lat="48.16472" lon="-2.85262">
        <ele>139.097656</ele>
        <time>2019-07-17T12:42:09Z</time>
      </trkpt>
      <trkpt lat="48.16481" lon="-2.8526">
        <ele>139.796875</ele>
        <time>2019-07-17T12:42:07Z</time>
      </trkpt>
      <trkpt lat="48.16493" lon="-2.85256">
        <ele>140.398438</ele>
        <time>2019-07-17T12:42:04Z</time>
      </trkpt>
      <trkpt lat="48.16504" lon="-2.85252">
        <ele>140.597656</ele>
        <time>2019-07-17T12:42:01Z</time>
      </trkpt>
      <trkpt lat="48.16514" lon="-2.85243">
        <ele>141.097656</ele>
        <time>2019-07-17T12:41:58Z</time>
      </trkpt>
      <trkpt lat="48.16521" lon="-2.85232">
        <ele>142.296875</ele>
        <time>2019-07-17T12:41:55Z</time>
      </trkpt>
      <trkpt lat="48.16528" lon="-2.85221">
        <ele>144</ele>
        <time>2019-07-17T12:41:52Z</time>
      </trkpt>
      <trkpt lat="48.16541" lon="-2.85196">
        <ele>144.699219</ele>
        <time>2019-07-17T12:41:45Z</time>
      </trkpt>
      <trkpt lat="48.16547" lon="-2.85182">
        <ele>144.199219</ele>
        <time>2019-07-17T12:41:42Z</time>
      </trkpt>
      <trkpt lat="48.16562" lon="-2.85139">
        <ele>142.796875</ele>
        <time>2019-07-17T12:41:33Z</time>
      </trkpt>
      <trkpt lat="48.16566" lon="-2.85126">
        <ele>141.898438</ele>
        <time>2019-07-17T12:41:30Z</time>
      </trkpt>
      <trkpt lat="48.16567" lon="-2.85112">
        <ele>141</ele>
        <time>2019-07-17T12:41:27Z</time>
      </trkpt>
      <trkpt lat="48.1656" lon="-2.85051">
        <ele>140.5</ele>
        <time>2019-07-17T12:41:14Z</time>
      </trkpt>
      <trkpt lat="48.16549" lon="-2.84975">
        <ele>140.199219</ele>
        <time>2019-07-17T12:40:59Z</time>
      </trkpt>
      <trkpt lat="48.16532" lon="-2.84899">
        <ele>138.898438</ele>
        <time>2019-07-17T12:40:43Z</time>
      </trkpt>
      <trkpt lat="48.16528" lon="-2.84883">
        <ele>138.398438</ele>
        <time>2019-07-17T12:40:40Z</time>
      </trkpt>
      <trkpt lat="48.16521" lon="-2.84832">
        <ele>137.5</ele>
        <time>2019-07-17T12:40:31Z</time>
      </trkpt>
      <trkpt lat="48.16516" lon="-2.848">
        <ele>136.5</ele>
        <time>2019-07-17T12:40:25Z</time>
      </trkpt>
      <trkpt lat="48.16513" lon="-2.84784">
        <ele>136</ele>
        <time>2019-07-17T12:40:22Z</time>
      </trkpt>
      <trkpt lat="48.16509" lon="-2.84768">
        <ele>135.597656</ele>
        <time>2019-07-17T12:40:19Z</time>
      </trkpt>
      <trkpt lat="48.16503" lon="-2.84753">
        <ele>135.5</ele>
        <time>2019-07-17T12:40:16Z</time>
      </trkpt>
      <trkpt lat="48.16496" lon="-2.84738">
        <ele>135.398438</ele>
        <time>2019-07-17T12:40:13Z</time>
      </trkpt>
      <trkpt lat="48.16487" lon="-2.84724">
        <ele>135.296875</ele>
        <time>2019-07-17T12:40:10Z</time>
      </trkpt>
      <trkpt lat="48.16467" lon="-2.84703">
        <ele>135.398438</ele>
        <time>2019-07-17T12:40:04Z</time>
      </trkpt>
      <trkpt lat="48.16457" lon="-2.84694">
        <ele>135.898438</ele>
        <time>2019-07-17T12:40:01Z</time>
      </trkpt>
      <trkpt lat="48.16446" lon="-2.84686">
        <ele>135.5</ele>
        <time>2019-07-17T12:39:58Z</time>
      </trkpt>
      <trkpt lat="48.16434" lon="-2.84686">
        <ele>134.699219</ele>
        <time>2019-07-17T12:39:55Z</time>
      </trkpt>
      <trkpt lat="48.16411" lon="-2.84694">
        <ele>135.296875</ele>
        <time>2019-07-17T12:39:49Z</time>
      </trkpt>
      <trkpt lat="48.16375" lon="-2.84709">
        <ele>136</ele>
        <time>2019-07-17T12:39:40Z</time>
      </trkpt>
      <trkpt lat="48.16364" lon="-2.84715">
        <ele>136</ele>
        <time>2019-07-17T12:39:37Z</time>
      </trkpt>
      <trkpt lat="48.16352" lon="-2.84724">
        <ele>136.398438</ele>
        <time>2019-07-17T12:39:34Z</time>
      </trkpt>
      <trkpt lat="48.16333" lon="-2.84744">
        <ele>137.199219</ele>
        <time>2019-07-17T12:39:28Z</time>
      </trkpt>
      <trkpt lat="48.16324" lon="-2.84752">
        <ele>137.296875</ele>
        <time>2019-07-17T12:39:25Z</time>
      </trkpt>
      <trkpt lat="48.16314" lon="-2.84756">
        <ele>137.296875</ele>
        <time>2019-07-17T12:39:22Z</time>
      </trkpt>
      <trkpt lat="48.16294" lon="-2.84753">
        <ele>137.699219</ele>
        <time>2019-07-17T12:39:15Z</time>
      </trkpt>
      <trkpt lat="48.16282" lon="-2.84751">
        <ele>137.199219</ele>
        <time>2019-07-17T12:39:12Z</time>
      </trkpt>
      <trkpt lat="48.16269" lon="-2.84753">
        <ele>137.398438</ele>
        <time>2019-07-17T12:39:09Z</time>
      </trkpt>
      <trkpt lat="48.16257" lon="-2.84758">
        <ele>137.5</ele>
        <time>2019-07-17T12:39:06Z</time>
      </trkpt>
      <trkpt lat="48.16246" lon="-2.84763">
        <ele>137.898438</ele>
        <time>2019-07-17T12:39:03Z</time>
      </trkpt>
      <trkpt lat="48.16237" lon="-2.84763">
        <ele>138.296875</ele>
        <time>2019-07-17T12:39:00Z</time>
      </trkpt>
      <trkpt lat="48.16228" lon="-2.84756">
        <ele>138.699219</ele>
        <time>2019-07-17T12:38:57Z</time>
      </trkpt>
      <trkpt lat="48.16212" lon="-2.84739">
        <ele>139</ele>
        <time>2019-07-17T12:38:51Z</time>
      </trkpt>
      <trkpt lat="48.16203" lon="-2.84731">
        <ele>139.796875</ele>
        <time>2019-07-17T12:38:48Z</time>
      </trkpt>
      <trkpt lat="48.16195" lon="-2.8472">
        <ele>140.597656</ele>
        <time>2019-07-17T12:38:45Z</time>
      </trkpt>
      <trkpt lat="48.16078" lon="-2.84512">
        <ele>142.296875</ele>
        <time>2019-07-17T12:37:54Z</time>
      </trkpt>
      <trkpt lat="48.16072" lon="-2.845">
        <ele>142.398438</ele>
        <time>2019-07-17T12:37:51Z</time>
      </trkpt>
      <trkpt lat="48.16053" lon="-2.84437">
        <ele>142.296875</ele>
        <time>2019-07-17T12:37:39Z</time>
      </trkpt>
      <trkpt lat="48.16048" lon="-2.8442">
        <ele>142.398438</ele>
        <time>2019-07-17T12:37:36Z</time>
      </trkpt>
      <trkpt lat="48.16041" lon="-2.84406">
        <ele>142.699219</ele>
        <time>2019-07-17T12:37:33Z</time>
      </trkpt>
      <trkpt lat="48.16032" lon="-2.84393">
        <ele>143.097656</ele>
        <time>2019-07-17T12:37:29Z</time>
      </trkpt>
      <trkpt lat="48.16031" lon="-2.84377">
        <ele>143.796875</ele>
        <time>2019-07-17T12:37:25Z</time>
      </trkpt>
      <trkpt lat="48.16039" lon="-2.84334">
        <ele>144</ele>
        <time>2019-07-17T12:37:15Z</time>
      </trkpt>
      <trkpt lat="48.16047" lon="-2.8426">
        <ele>144.296875</ele>
        <time>2019-07-17T12:37:00Z</time>
      </trkpt>
      <trkpt lat="48.16051" lon="-2.84218">
        <ele>144.5</ele>
        <time>2019-07-17T12:36:51Z</time>
      </trkpt>
      <trkpt lat="48.16053" lon="-2.84204">
        <ele>144.5</ele>
        <time>2019-07-17T12:36:48Z</time>
      </trkpt>
      <trkpt lat="48.16056" lon="-2.84191">
        <ele>144.5</ele>
        <time>2019-07-17T12:36:45Z</time>
      </trkpt>
      <trkpt lat="48.16061" lon="-2.84175">
        <ele>144.5</ele>
        <time>2019-07-17T12:36:41Z</time>
      </trkpt>
      <trkpt lat="48.16066" lon="-2.84162">
        <ele>144.5</ele>
        <time>2019-07-17T12:36:37Z</time>
      </trkpt>
      <trkpt lat="48.16072" lon="-2.84148">
        <ele>144.199219</ele>
        <time>2019-07-17T12:36:32Z</time>
      </trkpt>
      <trkpt lat="48.16071" lon="-2.84134">
        <ele>144.296875</ele>
        <time>2019-07-17T12:34:32Z</time>
      </trkpt>
      <trkpt lat="48.16072" lon="-2.8412">
        <ele>138.15625</ele>
        <time>2019-07-17T12:34:13Z</time>
      </trkpt>
      <trkpt lat="48.16076" lon="-2.84104">
        <ele>137.199219</ele>
        <time>2019-07-17T12:34:09Z</time>
      </trkpt>
      <trkpt lat="48.16082" lon="-2.84093">
        <ele>136.699219</ele>
        <time>2019-07-17T12:34:06Z</time>
      </trkpt>
      <trkpt lat="48.16102" lon="-2.8406">
        <ele>136.097656</ele>
        <time>2019-07-17T12:33:57Z</time>
      </trkpt>
      <trkpt lat="48.16129" lon="-2.84014">
        <ele>135.5</ele>
        <time>2019-07-17T12:33:45Z</time>
      </trkpt>
      <trkpt lat="48.16142" lon="-2.83987">
        <ele>135.398438</ele>
        <time>2019-07-17T12:33:39Z</time>
      </trkpt>
      <trkpt lat="48.16166" lon="-2.8393">
        <ele>134.296875</ele>
        <time>2019-07-17T12:33:27Z</time>
      </trkpt>
      <trkpt lat="48.16171" lon="-2.83917">
        <ele>134</ele>
        <time>2019-07-17T12:33:24Z</time>
      </trkpt>
      <trkpt lat="48.16176" lon="-2.83902">
        <ele>133.796875</ele>
        <time>2019-07-17T12:33:21Z</time>
      </trkpt>
      <trkpt lat="48.16177" lon="-2.83886">
        <ele>133.296875</ele>
        <time>2019-07-17T12:33:18Z</time>
      </trkpt>
      <trkpt lat="48.16178" lon="-2.8387">
        <ele>133.199219</ele>
        <time>2019-07-17T12:33:15Z</time>
      </trkpt>
      <trkpt lat="48.16179" lon="-2.83854">
        <ele>133.398438</ele>
        <time>2019-07-17T12:33:12Z</time>
      </trkpt>
      <trkpt lat="48.16177" lon="-2.83838">
        <ele>133.398438</ele>
        <time>2019-07-17T12:33:09Z</time>
      </trkpt>
      <trkpt lat="48.16171" lon="-2.83824">
        <ele>133.199219</ele>
        <time>2019-07-17T12:33:06Z</time>
      </trkpt>
      <trkpt lat="48.16156" lon="-2.83802">
        <ele>133.398438</ele>
        <time>2019-07-17T12:33:00Z</time>
      </trkpt>
      <trkpt lat="48.16148" lon="-2.83791">
        <ele>134</ele>
        <time>2019-07-17T12:32:57Z</time>
      </trkpt>
      <trkpt lat="48.16139" lon="-2.83783">
        <ele>134</ele>
        <time>2019-07-17T12:32:54Z</time>
      </trkpt>
      <trkpt lat="48.16128" lon="-2.83776">
        <ele>134</ele>
        <time>2019-07-17T12:32:51Z</time>
      </trkpt>
      <trkpt lat="48.16118" lon="-2.8377">
        <ele>134.199219</ele>
        <time>2019-07-17T12:32:48Z</time>
      </trkpt>
      <trkpt lat="48.16107" lon="-2.83767">
        <ele>134.5</ele>
        <time>2019-07-17T12:32:45Z</time>
      </trkpt>
      <trkpt lat="48.16096" lon="-2.83767">
        <ele>134.398438</ele>
        <time>2019-07-17T12:32:42Z</time>
      </trkpt>
      <trkpt lat="48.16085" lon="-2.83769">
        <ele>134.398438</ele>
        <time>2019-07-17T12:32:39Z</time>
      </trkpt>
      <trkpt lat="48.16073" lon="-2.83773">
        <ele>134.398438</ele>
        <time>2019-07-17T12:32:36Z</time>
      </trkpt>
      <trkpt lat="48.16062" lon="-2.8378">
        <ele>134.296875</ele>
        <time>2019-07-17T12:32:33Z</time>
      </trkpt>
      <trkpt lat="48.16052" lon="-2.8379">
        <ele>134.5</ele>
        <time>2019-07-17T12:32:30Z</time>
      </trkpt>
      <trkpt lat="48.16009" lon="-2.83844">
        <ele>136</ele>
        <time>2019-07-17T12:32:15Z</time>
      </trkpt>
      <trkpt lat="48.16001" lon="-2.83855">
        <ele>136.097656</ele>
        <time>2019-07-17T12:32:12Z</time>
      </trkpt>
      <trkpt lat="48.15994" lon="-2.83868">
        <ele>136.5</ele>
        <time>2019-07-17T12:32:09Z</time>
      </trkpt>
      <trkpt lat="48.15989" lon="-2.83883">
        <ele>136.296875</ele>
        <time>2019-07-17T12:32:06Z</time>
      </trkpt>
      <trkpt lat="48.15981" lon="-2.83914">
        <ele>135.296875</ele>
        <time>2019-07-17T12:32:00Z</time>
      </trkpt>
      <trkpt lat="48.15979" lon="-2.8393">
        <ele>134.796875</ele>
        <time>2019-07-17T12:31:57Z</time>
      </trkpt>
      <trkpt lat="48.15979" lon="-2.83945">
        <ele>133.898438</ele>
        <time>2019-07-17T12:31:54Z</time>
      </trkpt>
      <trkpt lat="48.15979" lon="-2.8396">
        <ele>133.398438</ele>
        <time>2019-07-17T12:31:51Z</time>
      </trkpt>
      <trkpt lat="48.15976" lon="-2.83974">
        <ele>133.199219</ele>
        <time>2019-07-17T12:31:48Z</time>
      </trkpt>
      <trkpt lat="48.15968" lon="-2.83985">
        <ele>132.796875</ele>
        <time>2019-07-17T12:31:44Z</time>
      </trkpt>
      <trkpt lat="48.15959" lon="-2.83993">
        <ele>132.296875</ele>
        <time>2019-07-17T12:31:40Z</time>
      </trkpt>
      <trkpt lat="48.15951" lon="-2.84002">
        <ele>131.597656</ele>
        <time>2019-07-17T12:31:36Z</time>
      </trkpt>
      <trkpt lat="48.15943" lon="-2.84012">
        <ele>130.597656</ele>
        <time>2019-07-17T12:31:33Z</time>
      </trkpt>
      <trkpt lat="48.15914" lon="-2.84084">
        <ele>133.5</ele>
        <time>2019-07-17T12:31:18Z</time>
      </trkpt>
      <trkpt lat="48.15901" lon="-2.84113">
        <ele>133.796875</ele>
        <time>2019-07-17T12:31:12Z</time>
      </trkpt>
      <trkpt lat="48.15886" lon="-2.84142">
        <ele>133</ele>
        <time>2019-07-17T12:31:06Z</time>
      </trkpt>
      <trkpt lat="48.15879" lon="-2.84155">
        <ele>133.296875</ele>
        <time>2019-07-17T12:31:03Z</time>
      </trkpt>
      <trkpt lat="48.15871" lon="-2.84167">
        <ele>134.097656</ele>
        <time>2019-07-17T12:31:00Z</time>
      </trkpt>
      <trkpt lat="48.15862" lon="-2.84175">
        <ele>134.699219</ele>
        <time>2019-07-17T12:30:57Z</time>
      </trkpt>
      <trkpt lat="48.15839" lon="-2.84185">
        <ele>134.296875</ele>
        <time>2019-07-17T12:30:51Z</time>
      </trkpt>
      <trkpt lat="48.15828" lon="-2.84191">
        <ele>134.097656</ele>
        <time>2019-07-17T12:30:48Z</time>
      </trkpt>
      <trkpt lat="48.15817" lon="-2.84199">
        <ele>133.796875</ele>
        <time>2019-07-17T12:30:45Z</time>
      </trkpt>
      <trkpt lat="48.15799" lon="-2.84225">
        <ele>133.597656</ele>
        <time>2019-07-17T12:30:39Z</time>
      </trkpt>
      <trkpt lat="48.1579" lon="-2.84237">
        <ele>133.796875</ele>
        <time>2019-07-17T12:30:36Z</time>
      </trkpt>
      <trkpt lat="48.1578" lon="-2.84247">
        <ele>133.796875</ele>
        <time>2019-07-17T12:30:33Z</time>
      </trkpt>
      <trkpt lat="48.15769" lon="-2.84253">
        <ele>133.597656</ele>
        <time>2019-07-17T12:30:30Z</time>
      </trkpt>
      <trkpt lat="48.15644" lon="-2.84294">
        <ele>131.699219</ele>
        <time>2019-07-17T12:29:57Z</time>
      </trkpt>
      <trkpt lat="48.15633" lon="-2.84297">
        <ele>131.699219</ele>
        <time>2019-07-17T12:29:54Z</time>
      </trkpt>
      <trkpt lat="48.15621" lon="-2.84299">
        <ele>131.5</ele>
        <time>2019-07-17T12:29:51Z</time>
      </trkpt>
      <trkpt lat="48.15542" lon="-2.84288">
        <ele>130.699219</ele>
        <time>2019-07-17T12:29:30Z</time>
      </trkpt>
      <trkpt lat="48.15531" lon="-2.84287">
        <ele>130.898438</ele>
        <time>2019-07-17T12:29:27Z</time>
      </trkpt>
      <trkpt lat="48.15521" lon="-2.84291">
        <ele>131.097656</ele>
        <time>2019-07-17T12:29:24Z</time>
      </trkpt>
      <trkpt lat="48.15493" lon="-2.84313">
        <ele>132.699219</ele>
        <time>2019-07-17T12:29:15Z</time>
      </trkpt>
      <trkpt lat="48.15474" lon="-2.84326">
        <ele>133</ele>
        <time>2019-07-17T12:29:09Z</time>
      </trkpt>
      <trkpt lat="48.15454" lon="-2.8434">
        <ele>133.296875</ele>
        <time>2019-07-17T12:29:03Z</time>
      </trkpt>
      <trkpt lat="48.15445" lon="-2.84348">
        <ele>133.898438</ele>
        <time>2019-07-17T12:29:00Z</time>
      </trkpt>
      <trkpt lat="48.15437" lon="-2.84358">
        <ele>134.398438</ele>
        <time>2019-07-17T12:28:57Z</time>
      </trkpt>
      <trkpt lat="48.15432" lon="-2.84373">
        <ele>134.898438</ele>
        <time>2019-07-17T12:28:54Z</time>
      </trkpt>
      <trkpt lat="48.15428" lon="-2.8439">
        <ele>135.296875</ele>
        <time>2019-07-17T12:28:51Z</time>
      </trkpt>
      <trkpt lat="48.15426" lon="-2.84408">
        <ele>135.597656</ele>
        <time>2019-07-17T12:28:48Z</time>
      </trkpt>
      <trkpt lat="48.15422" lon="-2.84509">
        <ele>135.5</ele>
        <time>2019-07-17T12:28:30Z</time>
      </trkpt>
      <trkpt lat="48.15422" lon="-2.84578">
        <ele>134.199219</ele>
        <time>2019-07-17T12:28:18Z</time>
      </trkpt>
      <trkpt lat="48.15428" lon="-2.84707">
        <ele>132.796875</ele>
        <time>2019-07-17T12:27:54Z</time>
      </trkpt>
      <trkpt lat="48.1543" lon="-2.84724">
        <ele>133.699219</ele>
        <time>2019-07-17T12:27:51Z</time>
      </trkpt>
      <trkpt lat="48.15433" lon="-2.8474">
        <ele>135.5</ele>
        <time>2019-07-17T12:27:48Z</time>
      </trkpt>
      <trkpt lat="48.1545" lon="-2.84802">
        <ele>135.097656</ele>
        <time>2019-07-17T12:27:36Z</time>
      </trkpt>
      <trkpt lat="48.15521" lon="-2.85078">
        <ele>131.796875</ele>
        <time>2019-07-17T12:26:42Z</time>
      </trkpt>
      <trkpt lat="48.15527" lon="-2.85107">
        <ele>130.597656</ele>
        <time>2019-07-17T12:26:36Z</time>
      </trkpt>
      <trkpt lat="48.15529" lon="-2.85122">
        <ele>130.597656</ele>
        <time>2019-07-17T12:26:33Z</time>
      </trkpt>
      <trkpt lat="48.1553" lon="-2.85138">
        <ele>130.398438</ele>
        <time>2019-07-17T12:26:30Z</time>
      </trkpt>
      <trkpt lat="48.15532" lon="-2.85171">
        <ele>130.898438</ele>
        <time>2019-07-17T12:26:24Z</time>
      </trkpt>
      <trkpt lat="48.15532" lon="-2.85188">
        <ele>130.5</ele>
        <time>2019-07-17T12:26:21Z</time>
      </trkpt>
      <trkpt lat="48.1553" lon="-2.85203">
        <ele>130.296875</ele>
        <time>2019-07-17T12:26:18Z</time>
      </trkpt>
      <trkpt lat="48.15512" lon="-2.85258">
        <ele>131.5</ele>
        <time>2019-07-17T12:26:06Z</time>
      </trkpt>
      <trkpt lat="48.15508" lon="-2.85271">
        <ele>132.097656</ele>
        <time>2019-07-17T12:26:03Z</time>
      </trkpt>
      <trkpt lat="48.15504" lon="-2.85286">
        <ele>132.296875</ele>
        <time>2019-07-17T12:26:00Z</time>
      </trkpt>
      <trkpt lat="48.15493" lon="-2.85376">
        <ele>132.699219</ele>
        <time>2019-07-17T12:25:41Z</time>
      </trkpt>
      <trkpt lat="48.15479" lon="-2.85472">
        <ele>137.699219</ele>
        <time>2019-07-17T12:25:19Z</time>
      </trkpt>
      <trkpt lat="48.15477" lon="-2.85486">
        <ele>137.898438</ele>
        <time>2019-07-17T12:25:16Z</time>
      </trkpt>
      <trkpt lat="48.15474" lon="-2.85499">
        <ele>137.796875</ele>
        <time>2019-07-17T12:25:13Z</time>
      </trkpt>
      <trkpt lat="48.15467" lon="-2.8551">
        <ele>138.398438</ele>
        <time>2019-07-17T12:25:10Z</time>
      </trkpt>
      <trkpt lat="48.15458" lon="-2.85516">
        <ele>139</ele>
        <time>2019-07-17T12:25:07Z</time>
      </trkpt>
      <trkpt lat="48.15447" lon="-2.85515">
        <ele>139</ele>
        <time>2019-07-17T12:25:04Z</time>
      </trkpt>
      <trkpt lat="48.15439" lon="-2.85509">
        <ele>138.699219</ele>
        <time>2019-07-17T12:25:01Z</time>
      </trkpt>
      <trkpt lat="48.15432" lon="-2.85498">
        <ele>138.796875</ele>
        <time>2019-07-17T12:24:58Z</time>
      </trkpt>
      <trkpt lat="48.15427" lon="-2.85486">
        <ele>139.199219</ele>
        <time>2019-07-17T12:24:55Z</time>
      </trkpt>
      <trkpt lat="48.15424" lon="-2.85473">
        <ele>139.398438</ele>
        <time>2019-07-17T12:24:52Z</time>
      </trkpt>
      <trkpt lat="48.15391" lon="-2.85375">
        <ele>141.796875</ele>
        <time>2019-07-17T12:24:30Z</time>
      </trkpt>
      <trkpt lat="48.15387" lon="-2.8536">
        <ele>143.097656</ele>
        <time>2019-07-17T12:24:27Z</time>
      </trkpt>
      <trkpt lat="48.15384" lon="-2.85344">
        <ele>144.097656</ele>
        <time>2019-07-17T12:24:24Z</time>
      </trkpt>
      <trkpt lat="48.15383" lon="-2.85328">
        <ele>144.597656</ele>
        <time>2019-07-17T12:24:21Z</time>
      </trkpt>
      <trkpt lat="48.15384" lon="-2.85278">
        <ele>139.097656</ele>
        <time>2019-07-17T12:24:12Z</time>
      </trkpt>
      <trkpt lat="48.15386" lon="-2.85246">
        <ele>135.796875</ele>
        <time>2019-07-17T12:24:06Z</time>
      </trkpt>
      <trkpt lat="48.15387" lon="-2.85231">
        <ele>134.398438</ele>
        <time>2019-07-17T12:24:03Z</time>
      </trkpt>
      <trkpt lat="48.1539" lon="-2.85216">
        <ele>133.398438</ele>
        <time>2019-07-17T12:24:00Z</time>
      </trkpt>
      <trkpt lat="48.15392" lon="-2.852">
        <ele>132.398438</ele>
        <time>2019-07-17T12:23:57Z</time>
      </trkpt>
      <trkpt lat="48.15392" lon="-2.85184">
        <ele>132.597656</ele>
        <time>2019-07-17T12:23:54Z</time>
      </trkpt>
      <trkpt lat="48.1538" lon="-2.8509">
        <ele>137.296875</ele>
        <time>2019-07-17T12:23:36Z</time>
      </trkpt>
      <trkpt lat="48.15377" lon="-2.85075">
        <ele>138.699219</ele>
        <time>2019-07-17T12:23:33Z</time>
      </trkpt>
      <trkpt lat="48.15376" lon="-2.85058">
        <ele>139.5</ele>
        <time>2019-07-17T12:23:30Z</time>
      </trkpt>
      <trkpt lat="48.15376" lon="-2.85043">
        <ele>138.296875</ele>
        <time>2019-07-17T12:23:27Z</time>
      </trkpt>
      <trkpt lat="48.15374" lon="-2.85025">
        <ele>137.597656</ele>
        <time>2019-07-17T12:23:23Z</time>
      </trkpt>
      <trkpt lat="48.1537" lon="-2.85012">
        <ele>138</ele>
        <time>2019-07-17T12:23:20Z</time>
      </trkpt>
      <trkpt lat="48.15363" lon="-2.85001">
        <ele>137.699219</ele>
        <time>2019-07-17T12:23:17Z</time>
      </trkpt>
      <trkpt lat="48.15355" lon="-2.8499">
        <ele>136.796875</ele>
        <time>2019-07-17T12:23:14Z</time>
      </trkpt>
      <trkpt lat="48.15346" lon="-2.84979">
        <ele>135.898438</ele>
        <time>2019-07-17T12:23:11Z</time>
      </trkpt>
      <trkpt lat="48.15337" lon="-2.84971">
        <ele>135.597656</ele>
        <time>2019-07-17T12:23:08Z</time>
      </trkpt>
      <trkpt lat="48.15315" lon="-2.84961">
        <ele>134.898438</ele>
        <time>2019-07-17T12:23:02Z</time>
      </trkpt>
      <trkpt lat="48.15304" lon="-2.84957">
        <ele>134.5</ele>
        <time>2019-07-17T12:22:59Z</time>
      </trkpt>
      <trkpt lat="48.15293" lon="-2.84957">
        <ele>134.398438</ele>
        <time>2019-07-17T12:22:56Z</time>
      </trkpt>
      <trkpt lat="48.15274" lon="-2.8497">
        <ele>134.597656</ele>
        <time>2019-07-17T12:22:50Z</time>
      </trkpt>
      <trkpt lat="48.15264" lon="-2.84976">
        <ele>135.199219</ele>
        <time>2019-07-17T12:22:47Z</time>
      </trkpt>
      <trkpt lat="48.15253" lon="-2.84975">
        <ele>135.699219</ele>
        <time>2019-07-17T12:22:44Z</time>
      </trkpt>
      <trkpt lat="48.15243" lon="-2.84969">
        <ele>136.796875</ele>
        <time>2019-07-17T12:22:41Z</time>
      </trkpt>
      <trkpt lat="48.15232" lon="-2.84964">
        <ele>138</ele>
        <time>2019-07-17T12:22:38Z</time>
      </trkpt>
      <trkpt lat="48.1522" lon="-2.84961">
        <ele>138.5</ele>
        <time>2019-07-17T12:22:35Z</time>
      </trkpt>
      <trkpt lat="48.15127" lon="-2.84953">
        <ele>139.699219</ele>
        <time>2019-07-17T12:22:11Z</time>
      </trkpt>
      <trkpt lat="48.15116" lon="-2.84951">
        <ele>139.398438</ele>
        <time>2019-07-17T12:22:08Z</time>
      </trkpt>
      <trkpt lat="48.15059" lon="-2.84934">
        <ele>138</ele>
        <time>2019-07-17T12:21:53Z</time>
      </trkpt>
      <trkpt lat="48.15047" lon="-2.8493">
        <ele>137.699219</ele>
        <time>2019-07-17T12:21:50Z</time>
      </trkpt>
      <trkpt lat="48.15007" lon="-2.84909">
        <ele>135.398438</ele>
        <time>2019-07-17T12:21:38Z</time>
      </trkpt>
      <trkpt lat="48.14997" lon="-2.84903">
        <ele>134.597656</ele>
        <time>2019-07-17T12:21:35Z</time>
      </trkpt>
      <trkpt lat="48.14988" lon="-2.849">
        <ele>134.296875</ele>
        <time>2019-07-17T12:21:32Z</time>
      </trkpt>
      <trkpt lat="48.14978" lon="-2.849">
        <ele>133.796875</ele>
        <time>2019-07-17T12:21:29Z</time>
      </trkpt>
      <trkpt lat="48.14967" lon="-2.84903">
        <ele>133.296875</ele>
        <time>2019-07-17T12:21:26Z</time>
      </trkpt>
      <trkpt lat="48.14957" lon="-2.84907">
        <ele>133.199219</ele>
        <time>2019-07-17T12:21:23Z</time>
      </trkpt>
      <trkpt lat="48.14917" lon="-2.8493">
        <ele>133.398438</ele>
        <time>2019-07-17T12:21:09Z</time>
      </trkpt>
      <trkpt lat="48.14865" lon="-2.8496">
        <ele>134.699219</ele>
        <time>2019-07-17T12:20:54Z</time>
      </trkpt>
      <trkpt lat="48.14855" lon="-2.84965">
        <ele>135.296875</ele>
        <time>2019-07-17T12:20:51Z</time>
      </trkpt>
      <trkpt lat="48.14778" lon="-2.84971">
        <ele>136.699219</ele>
        <time>2019-07-17T12:20:28Z</time>
      </trkpt>
      <trkpt lat="48.14767" lon="-2.84971">
        <ele>137.199219</ele>
        <time>2019-07-17T12:20:24Z</time>
      </trkpt>
      <trkpt lat="48.14756" lon="-2.84971">
        <ele>137</ele>
        <time>2019-07-17T12:20:20Z</time>
      </trkpt>
      <trkpt lat="48.14746" lon="-2.84969">
        <ele>136.5</ele>
        <time>2019-07-17T12:20:16Z</time>
      </trkpt>
      <trkpt lat="48.14736" lon="-2.84966">
        <ele>135.898438</ele>
        <time>2019-07-17T12:20:11Z</time>
      </trkpt>
      <trkpt lat="48.14716" lon="-2.84954">
        <ele>132.199219</ele>
        <time>2019-07-17T12:19:59Z</time>
      </trkpt>
      <trkpt lat="48.14707" lon="-2.84949">
        <ele>131.097656</ele>
        <time>2019-07-17T12:19:52Z</time>
      </trkpt>
      <trkpt lat="48.14698" lon="-2.84949">
        <ele>131.296875</ele>
        <time>2019-07-17T12:19:46Z</time>
      </trkpt>
      <trkpt lat="48.14688" lon="-2.84957">
        <ele>132.097656</ele>
        <time>2019-07-17T12:19:41Z</time>
      </trkpt>
      <trkpt lat="48.1468" lon="-2.84966">
        <ele>132.597656</ele>
        <time>2019-07-17T12:19:37Z</time>
      </trkpt>
      <trkpt lat="48.14646" lon="-2.84993">
        <ele>137</ele>
      </trkpt>
      <trkpt lat="48.14633" lon="-2.85007">
        <ele>137</ele>
      </trkpt>
      <trkpt lat="48.14615" lon="-2.85047">
        <ele>136.8</ele>
      </trkpt>
      <trkpt lat="48.14595" lon="-2.85104">
        <ele>137.3</ele>
      </trkpt>
      <trkpt lat="48.14589" lon="-2.85129">
        <ele>137.3</ele>
      </trkpt>
      <trkpt lat="48.14576" lon="-2.85157">
        <ele>137.2</ele>
      </trkpt>
      <trkpt lat="48.14568" lon="-2.85161">
        <ele>136.8</ele>
      </trkpt>
      <trkpt lat="48.14565" lon="-2.85165">
        <ele>136.7</ele>
      </trkpt>
      <trkpt lat="48.14561" lon="-2.85188">
        <ele>136.4</ele>
      </trkpt>
      <trkpt lat="48.14561" lon="-2.8526">
        <ele>136.4</ele>
      </trkpt>
      <trkpt lat="48.14568" lon="-2.854">
        <ele>136.9</ele>
      </trkpt>
      <trkpt lat="48.14567" lon="-2.8542">
        <ele>136.8</ele>
      </trkpt>
      <trkpt lat="48.14556" lon="-2.85485">
        <ele>136</ele>
      </trkpt>
      <trkpt lat="48.14554" lon="-2.85504">
        <ele>135.9</ele>
      </trkpt>
      <trkpt lat="48.1457" lon="-2.85607">
        <ele>136</ele>
      </trkpt>
      <trkpt lat="48.14574" lon="-2.85633">
        <ele>136.3</ele>
      </trkpt>
      <trkpt lat="48.14577" lon="-2.8564">
        <ele>136.5</ele>
      </trkpt>
      <trkpt lat="48.1446" lon="-2.85645">
        <ele>127.9</ele>
      </trkpt>
      <trkpt lat="48.14439" lon="-2.85642">
        <ele>126.3</ele>
      </trkpt>
      <trkpt lat="48.14419" lon="-2.85632">
        <ele>124.3</ele>
      </trkpt>
      <trkpt lat="48.14376" lon="-2.85603">
        <ele>120.8</ele>
      </trkpt>
      <trkpt lat="48.14364" lon="-2.85606">
        <ele>119.4</ele>
      </trkpt>
      <trkpt lat="48.14341" lon="-2.85615">
        <ele>118.3</ele>
      </trkpt>
      <trkpt lat="48.14339" lon="-2.85596">
        <ele>118.3</ele>
      </trkpt>
      <trkpt lat="48.14339" lon="-2.85574">
        <ele>118.4</ele>
      </trkpt>
      <trkpt lat="48.14341" lon="-2.85541">
        <ele>118.5</ele>
      </trkpt>
      <trkpt lat="48.14346" lon="-2.85504">
        <ele>118.9</ele>
      </trkpt>
      <trkpt lat="48.14364" lon="-2.85419">
        <ele>120.3</ele>
      </trkpt>
      <trkpt lat="48.14395" lon="-2.85338">
        <ele>123.3</ele>
      </trkpt>
      <trkpt lat="48.14414" lon="-2.85303">
        <ele>124.8</ele>
      </trkpt>
      <trkpt lat="48.14488" lon="-2.85193">
        <ele>131.7</ele>
      </trkpt>
      <trkpt lat="48.14566" lon="-2.85095">
        <ele>135.6</ele>
      </trkpt>
      <trkpt lat="48.14581" lon="-2.85071">
        <ele>135.5</ele>
      </trkpt>
      <trkpt lat="48.146" lon="-2.85034">
        <ele>135.7</ele>
      </trkpt>
      <trkpt lat="48.14635" lon="-2.8494">
        <ele>134.7</ele>
      </trkpt>
      <trkpt lat="48.14645" lon="-2.8492">
        <ele>134.3</ele>
      </trkpt>
      <trkpt lat="48.14641" lon="-2.84907">
        <ele>134</ele>
      </trkpt>
      <trkpt lat="48.14645" lon="-2.8492">
        <ele>134.3</ele>
      </trkpt>
      <trkpt lat="48.14663" lon="-2.84905">
        <ele>134.5</ele>
      </trkpt>
      <trkpt lat="48.14694" lon="-2.84894">
        <ele>133.3</ele>
      </trkpt>
      <trkpt lat="48.14756" lon="-2.84873">
        <ele>130.6</ele>
      </trkpt>
      <trkpt lat="48.14785" lon="-2.84856">
        <ele>128.8</ele>
      </trkpt>
      <trkpt lat="48.14811" lon="-2.84835">
        <ele>128</ele>
      </trkpt>
      <trkpt lat="48.14839" lon="-2.84803">
        <ele>127.1</ele>
      </trkpt>
      <trkpt lat="48.14855" lon="-2.84782">
        <ele>126.9</ele>
      </trkpt>
      <trkpt lat="48.14871" lon="-2.84764">
        <ele>126.7</ele>
      </trkpt>
      <trkpt lat="48.149" lon="-2.84736">
        <ele>125.9</ele>
      </trkpt>
      <trkpt lat="48.14931" lon="-2.84709">
        <ele>125.5</ele>
      </trkpt>
      <trkpt lat="48.14986" lon="-2.84638">
        <ele>123</ele>
      </trkpt>
      <trkpt lat="48.15041" lon="-2.84578">
        <ele>120.4</ele>
      </trkpt>
      <trkpt lat="48.15107" lon="-2.84527">
        <ele>117</ele>
      </trkpt>
      <trkpt lat="48.15145" lon="-2.84502">
        <ele>117.3</ele>
      </trkpt>
      <trkpt lat="48.15177" lon="-2.84478">
        <ele>119.1</ele>
      </trkpt>
      <trkpt lat="48.15192" lon="-2.84462">
        <ele>119.9</ele>
      </trkpt>
      <trkpt lat="48.15264" lon="-2.84366">
        <ele>125.4</ele>
      </trkpt>
      <trkpt lat="48.15279" lon="-2.84339">
        <ele>126.1</ele>
      </trkpt>
      <trkpt lat="48.15321" lon="-2.84215">
        <ele>129.1</ele>
      </trkpt>
      <trkpt lat="48.1534" lon="-2.84172">
        <ele>129.2</ele>
      </trkpt>
      <trkpt lat="48.15359" lon="-2.84132">
        <ele>129.9</ele>
      </trkpt>
      <trkpt lat="48.15382" lon="-2.84092">
        <ele>129.3</ele>
      </trkpt>
      <trkpt lat="48.15393" lon="-2.84077">
        <ele>128.9</ele>
      </trkpt>
      <trkpt lat="48.15403" lon="-2.84061">
        <ele>128.7</ele>
      </trkpt>
      <trkpt lat="48.15471" lon="-2.83919">
        <ele>123.2</ele>
      </trkpt>
      <trkpt lat="48.15492" lon="-2.8387">
        <ele>121.3</ele>
      </trkpt>
      <trkpt lat="48.15527" lon="-2.83775">
        <ele>116</ele>
      </trkpt>
      <trkpt lat="48.1554" lon="-2.83743">
        <ele>115.2</ele>
      </trkpt>
      <trkpt lat="48.15559" lon="-2.83712">
        <ele>112.6</ele>
      </trkpt>
      <trkpt lat="48.15609" lon="-2.83652">
        <ele>111.9</ele>
      </trkpt>
      <trkpt lat="48.15627" lon="-2.83624">
        <ele>112.6</ele>
      </trkpt>
      <trkpt lat="48.15743" lon="-2.83423">
        <ele>120.2</ele>
      </trkpt>
      <trkpt lat="48.15796" lon="-2.83345">
        <ele>120</ele>
      </trkpt>
      <trkpt lat="48.1581" lon="-2.83321">
        <ele>119.2</ele>
      </trkpt>
      <trkpt lat="48.15821" lon="-2.83295">
        <ele>117.9</ele>
      </trkpt>
      <trkpt lat="48.15833" lon="-2.83254">
        <ele>116.2</ele>
      </trkpt>
      <trkpt lat="48.15854" lon="-2.83174">
        <ele>111.7</ele>
      </trkpt>
      <trkpt lat="48.1588" lon="-2.83092">
        <ele>107.4</ele>
      </trkpt>
      <trkpt lat="48.15896" lon="-2.83052">
        <ele>106.2</ele>
      </trkpt>
      <trkpt lat="48.15836" lon="-2.83021">
        <ele>104.8</ele>
      </trkpt>
      <trkpt lat="48.15816" lon="-2.83009">
        <ele>103.7</ele>
      </trkpt>
      <trkpt lat="48.15798" lon="-2.82988">
        <ele>102.6</ele>
      </trkpt>
      <trkpt lat="48.1579" lon="-2.82973">
        <ele>102</ele>
      </trkpt>
      <trkpt lat="48.15783" lon="-2.82951">
        <ele>101.4</ele>
      </trkpt>
      <trkpt lat="48.15779" lon="-2.82934">
        <ele>101</ele>
      </trkpt>
      <trkpt lat="48.15774" lon="-2.82894">
        <ele>100.9</ele>
      </trkpt>
      <trkpt lat="48.15745" lon="-2.82564">
        <ele>99.6</ele>
      </trkpt>
      <trkpt lat="48.15734" lon="-2.82451">
        <ele>97.4</ele>
      </trkpt>
      <trkpt lat="48.15731" lon="-2.82388">
        <ele>95.3</ele>
      </trkpt>
      <trkpt lat="48.15733" lon="-2.8235">
        <ele>94.4</ele>
      </trkpt>
      <trkpt lat="48.15738" lon="-2.82316">
        <ele>93</ele>
      </trkpt>
      <trkpt lat="48.15754" lon="-2.82255">
        <ele>90.1</ele>
      </trkpt>
      <trkpt lat="48.15792" lon="-2.82137">
        <ele>86.4</ele>
      </trkpt>
      <trkpt lat="48.15801" lon="-2.82097">
        <ele>85.9</ele>
      </trkpt>
      <trkpt lat="48.15806" lon="-2.82065">
        <ele>85.4</ele>
      </trkpt>
      <trkpt lat="48.15813" lon="-2.81995">
        <ele>91.296875</ele>
        <time>2019-07-17T10:36:27Z</time>
      </trkpt>
      <trkpt lat="48.15824" lon="-2.81993">
        <ele>90.597656</ele>
        <time>2019-07-17T10:36:23Z</time>
      </trkpt>
      <trkpt lat="48.15835" lon="-2.81996">
        <ele>90.296875</ele>
        <time>2019-07-17T10:36:19Z</time>
      </trkpt>
      <trkpt lat="48.15965" lon="-2.82062">
        <ele>89.898438</ele>
        <time>2019-07-17T10:35:54Z</time>
      </trkpt>
      <trkpt lat="48.15986" lon="-2.82075">
        <ele>90</ele>
        <time>2019-07-17T10:35:50Z</time>
      </trkpt>
      <trkpt lat="48.15996" lon="-2.82083">
        <ele>90</ele>
        <time>2019-07-17T10:35:48Z</time>
      </trkpt>
      <trkpt lat="48.16016" lon="-2.82101">
        <ele>89.796875</ele>
        <time>2019-07-17T10:35:44Z</time>
      </trkpt>
      <trkpt lat="48.16104" lon="-2.82199">
        <ele>91</ele>
        <time>2019-07-17T10:35:24Z</time>
      </trkpt>
      <trkpt lat="48.16141" lon="-2.82239">
        <ele>91.296875</ele>
        <time>2019-07-17T10:35:14Z</time>
      </trkpt>
      <trkpt lat="48.16151" lon="-2.82248">
        <ele>91.296875</ele>
        <time>2019-07-17T10:35:11Z</time>
      </trkpt>
      <trkpt lat="48.16161" lon="-2.82256">
        <ele>91.199219</ele>
        <time>2019-07-17T10:35:08Z</time>
      </trkpt>
      <trkpt lat="48.16171" lon="-2.82259">
        <ele>90.898438</ele>
        <time>2019-07-17T10:35:05Z</time>
      </trkpt>
      <trkpt lat="48.16182" lon="-2.82253">
        <ele>90</ele>
        <time>2019-07-17T10:35:02Z</time>
      </trkpt>
      <trkpt lat="48.16191" lon="-2.82242">
        <ele>89.199219</ele>
        <time>2019-07-17T10:34:59Z</time>
      </trkpt>
      <trkpt lat="48.16209" lon="-2.82219">
        <ele>88.199219</ele>
        <time>2019-07-17T10:34:53Z</time>
      </trkpt>
      <trkpt lat="48.16216" lon="-2.82207">
        <ele>87.898438</ele>
        <time>2019-07-17T10:34:50Z</time>
      </trkpt>
      <trkpt lat="48.16231" lon="-2.82178">
        <ele>86.296875</ele>
        <time>2019-07-17T10:34:44Z</time>
      </trkpt>
      <trkpt lat="48.16236" lon="-2.82167">
        <ele>85.597656</ele>
        <time>2019-07-17T10:34:42Z</time>
      </trkpt>
      <trkpt lat="48.16243" lon="-2.82156">
        <ele>85.199219</ele>
        <time>2019-07-17T10:34:40Z</time>
      </trkpt>
      <trkpt lat="48.16338" lon="-2.82043">
        <ele>86.398438</ele>
        <time>2019-07-17T10:34:16Z</time>
      </trkpt>
      <trkpt lat="48.16386" lon="-2.81981">
        <ele>85.699219</ele>
        <time>2019-07-17T10:34:04Z</time>
      </trkpt>
      <trkpt lat="48.16408" lon="-2.81948">
        <ele>86.097656</ele>
        <time>2019-07-17T10:33:58Z</time>
      </trkpt>
      <trkpt lat="48.16425" lon="-2.81917">
        <ele>86.796875</ele>
        <time>2019-07-17T10:33:52Z</time>
      </trkpt>
      <trkpt lat="48.16451" lon="-2.81858">
        <ele>88.796875</ele>
        <time>2019-07-17T10:33:42Z</time>
      </trkpt>
      <trkpt lat="48.16455" lon="-2.81845">
        <ele>89</ele>
        <time>2019-07-17T10:33:40Z</time>
      </trkpt>
      <trkpt lat="48.16461" lon="-2.81834">
        <ele>89.097656</ele>
        <time>2019-07-17T10:33:38Z</time>
      </trkpt>
      <trkpt lat="48.1647" lon="-2.81819">
        <ele>88.898438</ele>
        <time>2019-07-17T10:33:35Z</time>
      </trkpt>
      <trkpt lat="48.16479" lon="-2.81813">
        <ele>89</ele>
        <time>2019-07-17T10:33:33Z</time>
      </trkpt>
      <trkpt lat="48.16488" lon="-2.81809">
        <ele>89</ele>
        <time>2019-07-17T10:33:31Z</time>
      </trkpt>
      <trkpt lat="48.16499" lon="-2.81807">
        <ele>89</ele>
        <time>2019-07-17T10:33:29Z</time>
      </trkpt>
      <trkpt lat="48.1651" lon="-2.81805">
        <ele>89.296875</ele>
        <time>2019-07-17T10:33:27Z</time>
      </trkpt>
      <trkpt lat="48.16532" lon="-2.81806">
        <ele>90.097656</ele>
        <time>2019-07-17T10:33:23Z</time>
      </trkpt>
      <trkpt lat="48.16577" lon="-2.81815">
        <ele>90.097656</ele>
        <time>2019-07-17T10:33:15Z</time>
      </trkpt>
      <trkpt lat="48.16601" lon="-2.81818">
        <ele>90.097656</ele>
        <time>2019-07-17T10:33:11Z</time>
      </trkpt>
      <trkpt lat="48.16614" lon="-2.81819">
        <ele>90.398438</ele>
        <time>2019-07-17T10:33:09Z</time>
      </trkpt>
      <trkpt lat="48.16628" lon="-2.81818">
        <ele>90.5</ele>
        <time>2019-07-17T10:33:07Z</time>
      </trkpt>
      <trkpt lat="48.16642" lon="-2.81813">
        <ele>90.597656</ele>
        <time>2019-07-17T10:33:05Z</time>
      </trkpt>
      <trkpt lat="48.16655" lon="-2.81805">
        <ele>91.097656</ele>
        <time>2019-07-17T10:33:03Z</time>
      </trkpt>
      <trkpt lat="48.16667" lon="-2.81793">
        <ele>91.5</ele>
        <time>2019-07-17T10:33:01Z</time>
      </trkpt>
      <trkpt lat="48.16678" lon="-2.81779">
        <ele>91.898438</ele>
        <time>2019-07-17T10:32:59Z</time>
      </trkpt>
      <trkpt lat="48.16689" lon="-2.81763">
        <ele>92.5</ele>
        <time>2019-07-17T10:32:57Z</time>
      </trkpt>
      <trkpt lat="48.16742" lon="-2.81669">
        <ele>95.296875</ele>
        <time>2019-07-17T10:32:47Z</time>
      </trkpt>
      <trkpt lat="48.16754" lon="-2.81651">
        <ele>96</ele>
        <time>2019-07-17T10:32:45Z</time>
      </trkpt>
      <trkpt lat="48.16797" lon="-2.81605">
        <ele>96.898438</ele>
        <time>2019-07-17T10:32:39Z</time>
      </trkpt>
      <trkpt lat="48.16835" lon="-2.81566">
        <ele>99.398438</ele>
        <time>2019-07-17T10:32:34Z</time>
      </trkpt>
      <trkpt lat="48.16871" lon="-2.81521">
        <ele>102.597656</ele>
        <time>2019-07-17T10:32:29Z</time>
      </trkpt>
      <trkpt lat="48.16885" lon="-2.81503">
        <ele>104</ele>
        <time>2019-07-17T10:32:27Z</time>
      </trkpt>
      <trkpt lat="48.16899" lon="-2.81487">
        <ele>104.597656</ele>
        <time>2019-07-17T10:32:25Z</time>
      </trkpt>
      <trkpt lat="48.16915" lon="-2.81474">
        <ele>106.097656</ele>
        <time>2019-07-17T10:32:23Z</time>
      </trkpt>
      <trkpt lat="48.16981" lon="-2.81431">
        <ele>109.398438</ele>
        <time>2019-07-17T10:32:15Z</time>
      </trkpt>
      <trkpt lat="48.16998" lon="-2.81419">
        <ele>110.398438</ele>
        <time>2019-07-17T10:32:13Z</time>
      </trkpt>
      <trkpt lat="48.17006" lon="-2.81412">
        <ele>110.796875</ele>
        <time>2019-07-17T10:32:12Z</time>
      </trkpt>
      <trkpt lat="48.17013" lon="-2.81404">
        <ele>111.398438</ele>
        <time>2019-07-17T10:32:11Z</time>
      </trkpt>
      <trkpt lat="48.1702" lon="-2.81394">
        <ele>112</ele>
        <time>2019-07-17T10:32:10Z</time>
      </trkpt>
      <trkpt lat="48.1703" lon="-2.81372">
        <ele>112.398438</ele>
        <time>2019-07-17T10:32:08Z</time>
      </trkpt>
      <trkpt lat="48.17035" lon="-2.81347">
        <ele>113.398438</ele>
        <time>2019-07-17T10:32:06Z</time>
      </trkpt>
      <trkpt lat="48.17036" lon="-2.81322">
        <ele>114.5</ele>
        <time>2019-07-17T10:32:04Z</time>
      </trkpt>
      <trkpt lat="48.17041" lon="-2.81298">
        <ele>115.5</ele>
        <time>2019-07-17T10:32:02Z</time>
      </trkpt>
      <trkpt lat="48.17051" lon="-2.81278">
        <ele>116.5</ele>
        <time>2019-07-17T10:32:00Z</time>
      </trkpt>
      <trkpt lat="48.17062" lon="-2.81261">
        <ele>117.898438</ele>
        <time>2019-07-17T10:31:58Z</time>
      </trkpt>
      <trkpt lat="48.1708" lon="-2.81225">
        <ele>120.5</ele>
        <time>2019-07-17T10:31:54Z</time>
      </trkpt>
      <trkpt lat="48.17087" lon="-2.81209">
        <ele>121.597656</ele>
        <time>2019-07-17T10:31:52Z</time>
      </trkpt>
      <trkpt lat="48.17096" lon="-2.81196">
        <ele>122.296875</ele>
        <time>2019-07-17T10:31:50Z</time>
      </trkpt>
      <trkpt lat="48.17104" lon="-2.81186">
        <ele>122.796875</ele>
        <time>2019-07-17T10:31:48Z</time>
      </trkpt>
      <trkpt lat="48.17112" lon="-2.81179">
        <ele>123.398438</ele>
        <time>2019-07-17T10:31:46Z</time>
      </trkpt>
      <trkpt lat="48.1712" lon="-2.81173">
        <ele>123.796875</ele>
        <time>2019-07-17T10:31:44Z</time>
      </trkpt>
      <trkpt lat="48.17133" lon="-2.81167">
        <ele>124.199219</ele>
        <time>2019-07-17T10:31:41Z</time>
      </trkpt>
      <trkpt lat="48.17142" lon="-2.81163">
        <ele>124.597656</ele>
        <time>2019-07-17T10:31:39Z</time>
      </trkpt>
      <trkpt lat="48.17151" lon="-2.81161">
        <ele>124.796875</ele>
        <time>2019-07-17T10:31:37Z</time>
      </trkpt>
      <trkpt lat="48.17161" lon="-2.8116">
        <ele>124.898438</ele>
        <time>2019-07-17T10:31:35Z</time>
      </trkpt>
      <trkpt lat="48.1717" lon="-2.81159">
        <ele>125.097656</ele>
        <time>2019-07-17T10:31:33Z</time>
      </trkpt>
      <trkpt lat="48.17179" lon="-2.81155">
        <ele>125.5</ele>
        <time>2019-07-17T10:31:31Z</time>
      </trkpt>
      <trkpt lat="48.17186" lon="-2.81147">
        <ele>125.796875</ele>
        <time>2019-07-17T10:31:29Z</time>
      </trkpt>
      <trkpt lat="48.1719" lon="-2.81134">
        <ele>126.199219</ele>
        <time>2019-07-17T10:31:27Z</time>
      </trkpt>
      <trkpt lat="48.17193" lon="-2.81119">
        <ele>126.398438</ele>
        <time>2019-07-17T10:31:25Z</time>
      </trkpt>
      <trkpt lat="48.17196" lon="-2.81105">
        <ele>126.699219</ele>
        <time>2019-07-17T10:31:23Z</time>
      </trkpt>
      <trkpt lat="48.17196" lon="-2.8109">
        <ele>126.699219</ele>
        <time>2019-07-17T10:31:21Z</time>
      </trkpt>
      <trkpt lat="48.17195" lon="-2.8107">
        <ele>126.699219</ele>
        <time>2019-07-17T10:31:18Z</time>
      </trkpt>
      <trkpt lat="48.17191" lon="-2.81052">
        <ele>126.5</ele>
        <time>2019-07-17T10:31:15Z</time>
      </trkpt>
      <trkpt lat="48.1718" lon="-2.81019">
        <ele>126.5</ele>
        <time>2019-07-17T10:31:09Z</time>
      </trkpt>
      <trkpt lat="48.17174" lon="-2.81004">
        <ele>126.699219</ele>
        <time>2019-07-17T10:31:06Z</time>
      </trkpt>
      <trkpt lat="48.17166" lon="-2.8099">
        <ele>126.699219</ele>
        <time>2019-07-17T10:31:03Z</time>
      </trkpt>
      <trkpt lat="48.17161" lon="-2.80977">
        <ele>127</ele>
        <time>2019-07-17T10:31:00Z</time>
      </trkpt>
      <trkpt lat="48.17156" lon="-2.80966">
        <ele>127.796875</ele>
        <time>2019-07-17T10:30:57Z</time>
      </trkpt>
      <trkpt lat="48.1713" lon="-2.80921">
        <ele>127.296875</ele>
        <time>2019-07-17T10:30:45Z</time>
      </trkpt>
      <trkpt lat="48.17105" lon="-2.80873">
        <ele>125</ele>
        <time>2019-07-17T10:30:36Z</time>
      </trkpt>
      <trkpt lat="48.17099" lon="-2.80861">
        <ele>124.699219</ele>
        <time>2019-07-17T10:30:34Z</time>
      </trkpt>
      <trkpt lat="48.17094" lon="-2.80847">
        <ele>124.5</ele>
        <time>2019-07-17T10:30:32Z</time>
      </trkpt>
      <trkpt lat="48.1709" lon="-2.80832">
        <ele>124.296875</ele>
        <time>2019-07-17T10:30:30Z</time>
      </trkpt>
      <trkpt lat="48.17087" lon="-2.80816">
        <ele>124.296875</ele>
        <time>2019-07-17T10:30:28Z</time>
      </trkpt>
      <trkpt lat="48.17087" lon="-2.80799">
        <ele>124.097656</ele>
        <time>2019-07-17T10:30:26Z</time>
      </trkpt>
      <trkpt lat="48.1709" lon="-2.8072">
        <ele>123.199219</ele>
        <time>2019-07-17T10:30:16Z</time>
      </trkpt>
      <trkpt lat="48.1709" lon="-2.80705">
        <ele>123</ele>
        <time>2019-07-17T10:30:14Z</time>
      </trkpt>
      <trkpt lat="48.1709" lon="-2.80691">
        <ele>122.898438</ele>
        <time>2019-07-17T10:30:12Z</time>
      </trkpt>
      <trkpt lat="48.17088" lon="-2.80677">
        <ele>122.796875</ele>
        <time>2019-07-17T10:30:10Z</time>
      </trkpt>
      <trkpt lat="48.17074" lon="-2.80624">
        <ele>122.5</ele>
        <time>2019-07-17T10:30:02Z</time>
      </trkpt>
      <trkpt lat="48.17067" lon="-2.80595">
        <ele>122.5</ele>
        <time>2019-07-17T10:29:58Z</time>
      </trkpt>
      <trkpt lat="48.17062" lon="-2.80566">
        <ele>122.699219</ele>
        <time>2019-07-17T10:29:54Z</time>
      </trkpt>
      <trkpt lat="48.17048" lon="-2.80458">
        <ele>122.796875</ele>
        <time>2019-07-17T10:29:37Z</time>
      </trkpt>
      <trkpt lat="48.17046" lon="-2.80441">
        <ele>122.097656</ele>
        <time>2019-07-17T10:29:34Z</time>
      </trkpt>
      <trkpt lat="48.17046" lon="-2.80426">
        <ele>121</ele>
        <time>2019-07-17T10:29:31Z</time>
      </trkpt>
      <trkpt lat="48.17047" lon="-2.80411">
        <ele>119</ele>
        <time>2019-07-17T10:29:28Z</time>
      </trkpt>
      <trkpt lat="48.17049" lon="-2.80397">
        <ele>116.597656</ele>
        <time>2019-07-17T10:29:25Z</time>
      </trkpt>
      <trkpt lat="48.17052" lon="-2.80384">
        <ele>114.699219</ele>
        <time>2019-07-17T10:29:22Z</time>
      </trkpt>
      <trkpt lat="48.17061" lon="-2.80341">
        <ele>109.796875</ele>
        <time>2019-07-17T10:29:12Z</time>
      </trkpt>
      <trkpt lat="48.17065" lon="-2.80326">
        <ele>108.597656</ele>
        <time>2019-07-17T10:29:08Z</time>
      </trkpt>
      <trkpt lat="48.17072" lon="-2.80295">
        <ele>105.5</ele>
        <time>2019-07-17T10:29:00Z</time>
      </trkpt>
      <trkpt lat="48.17085" lon="-2.80221">
        <ele>100.796875</ele>
        <time>2019-07-17T10:28:41Z</time>
      </trkpt>
      <trkpt lat="48.17087" lon="-2.80206">
        <ele>99.398438</ele>
        <time>2019-07-17T10:28:38Z</time>
      </trkpt>
      <trkpt lat="48.17088" lon="-2.80188">
        <ele>97.699219</ele>
        <time>2019-07-17T10:28:35Z</time>
      </trkpt>
      <trkpt lat="48.17082" lon="-2.80171">
        <ele>96.398438</ele>
        <time>2019-07-17T10:28:32Z</time>
      </trkpt>
      <trkpt lat="48.17034" lon="-2.80123">
        <ele>99.699219</ele>
        <time>2019-07-17T10:28:21Z</time>
      </trkpt>
      <trkpt lat="48.17022" lon="-2.80112">
        <ele>101.296875</ele>
        <time>2019-07-17T10:28:19Z</time>
      </trkpt>
      <trkpt lat="48.17011" lon="-2.801">
        <ele>103</ele>
        <time>2019-07-17T10:28:17Z</time>
      </trkpt>
      <trkpt lat="48.17004" lon="-2.80082">
        <ele>104.796875</ele>
        <time>2019-07-17T10:28:15Z</time>
      </trkpt>
      <trkpt lat="48.17004" lon="-2.8006">
        <ele>105.199219</ele>
        <time>2019-07-17T10:28:13Z</time>
      </trkpt>
      <trkpt lat="48.17005" lon="-2.80036">
        <ele>106</ele>
        <time>2019-07-17T10:28:11Z</time>
      </trkpt>
      <trkpt lat="48.17005" lon="-2.80012">
        <ele>107.796875</ele>
        <time>2019-07-17T10:28:09Z</time>
      </trkpt>
      <trkpt lat="48.17" lon="-2.79964">
        <ele>111.296875</ele>
        <time>2019-07-17T10:28:05Z</time>
      </trkpt>
      <trkpt lat="48.16999" lon="-2.79943">
        <ele>112.699219</ele>
        <time>2019-07-17T10:28:03Z</time>
      </trkpt>
      <trkpt lat="48.17001" lon="-2.79922">
        <ele>113.597656</ele>
        <time>2019-07-17T10:28:01Z</time>
      </trkpt>
      <trkpt lat="48.17004" lon="-2.799">
        <ele>114.199219</ele>
        <time>2019-07-17T10:27:59Z</time>
      </trkpt>
      <trkpt lat="48.17024" lon="-2.79805">
        <ele>115.296875</ele>
        <time>2019-07-17T10:27:52Z</time>
      </trkpt>
      <trkpt lat="48.17027" lon="-2.7979">
        <ele>115.597656</ele>
        <time>2019-07-17T10:27:51Z</time>
      </trkpt>
      <trkpt lat="48.17029" lon="-2.79774">
        <ele>116</ele>
        <time>2019-07-17T10:27:50Z</time>
      </trkpt>
      <trkpt lat="48.17029" lon="-2.79759">
        <ele>116.398438</ele>
        <time>2019-07-17T10:27:49Z</time>
      </trkpt>
      <trkpt lat="48.17028" lon="-2.79743">
        <ele>117</ele>
        <time>2019-07-17T10:27:48Z</time>
      </trkpt>
      <trkpt lat="48.1702" lon="-2.797">
        <ele>119.597656</ele>
        <time>2019-07-17T10:27:45Z</time>
      </trkpt>
      <trkpt lat="48.17016" lon="-2.79673">
        <ele>120.597656</ele>
        <time>2019-07-17T10:27:43Z</time>
      </trkpt>
      <trkpt lat="48.17015" lon="-2.79649">
        <ele>122.597656</ele>
        <time>2019-07-17T10:27:41Z</time>
      </trkpt>
      <trkpt lat="48.17016" lon="-2.79628">
        <ele>124.398438</ele>
        <time>2019-07-17T10:27:39Z</time>
      </trkpt>
      <trkpt lat="48.17019" lon="-2.79609">
        <ele>126.296875</ele>
        <time>2019-07-17T10:27:37Z</time>
      </trkpt>
      <trkpt lat="48.17022" lon="-2.79591">
        <ele>128.097656</ele>
        <time>2019-07-17T10:27:35Z</time>
      </trkpt>
      <trkpt lat="48.17049" lon="-2.79484">
        <ele>132.796875</ele>
        <time>2019-07-17T10:27:23Z</time>
      </trkpt>
      <trkpt lat="48.17053" lon="-2.79466">
        <ele>133.097656</ele>
        <time>2019-07-17T10:27:21Z</time>
      </trkpt>
      <trkpt lat="48.17073" lon="-2.79285">
        <ele>136.199219</ele>
        <time>2019-07-17T10:27:03Z</time>
      </trkpt>
      <trkpt lat="48.17077" lon="-2.79246">
        <ele>137.398438</ele>
        <time>2019-07-17T10:26:59Z</time>
      </trkpt>
      <trkpt lat="48.17074" lon="-2.78938">
        <ele>140.199219</ele>
        <time>2019-07-17T10:26:15Z</time>
      </trkpt>
      <trkpt lat="48.17074" lon="-2.78922">
        <ele>140</ele>
        <time>2019-07-17T10:26:12Z</time>
      </trkpt>
      <trkpt lat="48.17075" lon="-2.78908">
        <ele>139.796875</ele>
        <time>2019-07-17T10:26:09Z</time>
      </trkpt>
      <trkpt lat="48.17083" lon="-2.78898">
        <ele>139.597656</ele>
        <time>2019-07-17T10:26:05Z</time>
      </trkpt>
      <trkpt lat="48.17094" lon="-2.78897">
        <ele>138.898438</ele>
        <time>2019-07-17T10:26:01Z</time>
      </trkpt>
      <trkpt lat="48.17104" lon="-2.78896">
        <ele>137.796875</ele>
        <time>2019-07-17T10:25:58Z</time>
      </trkpt>
      <trkpt lat="48.17114" lon="-2.78892">
        <ele>136.898438</ele>
        <time>2019-07-17T10:25:55Z</time>
      </trkpt>
      <trkpt lat="48.17124" lon="-2.78885">
        <ele>136.199219</ele>
        <time>2019-07-17T10:25:52Z</time>
      </trkpt>
      <trkpt lat="48.17132" lon="-2.78873">
        <ele>135.699219</ele>
        <time>2019-07-17T10:25:49Z</time>
      </trkpt>
      <trkpt lat="48.17138" lon="-2.78859">
        <ele>135.699219</ele>
        <time>2019-07-17T10:25:46Z</time>
      </trkpt>
      <trkpt lat="48.17151" lon="-2.78813">
        <ele>136</ele>
        <time>2019-07-17T10:25:37Z</time>
      </trkpt>
      <trkpt lat="48.17161" lon="-2.78783">
        <ele>135.898438</ele>
        <time>2019-07-17T10:25:31Z</time>
      </trkpt>
      <trkpt lat="48.17166" lon="-2.78768">
        <ele>136.199219</ele>
        <time>2019-07-17T10:25:28Z</time>
      </trkpt>
      <trkpt lat="48.17172" lon="-2.78754">
        <ele>136.5</ele>
        <time>2019-07-17T10:25:25Z</time>
      </trkpt>
      <trkpt lat="48.17186" lon="-2.78725">
        <ele>136.097656</ele>
        <time>2019-07-17T10:25:19Z</time>
      </trkpt>
      <trkpt lat="48.17289" lon="-2.7853">
        <ele>135.398438</ele>
        <time>2019-07-17T10:24:37Z</time>
      </trkpt>
      <trkpt lat="48.17465" lon="-2.78231">
        <ele>135.296875</ele>
        <time>2019-07-17T10:23:32Z</time>
      </trkpt>
      <trkpt lat="48.17473" lon="-2.78219">
        <ele>135.199219</ele>
        <time>2019-07-17T10:23:30Z</time>
      </trkpt>
      <trkpt lat="48.17483" lon="-2.78212">
        <ele>135</ele>
        <time>2019-07-17T10:23:28Z</time>
      </trkpt>
      <trkpt lat="48.17495" lon="-2.78212">
        <ele>134.898438</ele>
        <time>2019-07-17T10:23:26Z</time>
      </trkpt>
      <trkpt lat="48.17509" lon="-2.78219">
        <ele>134.699219</ele>
        <time>2019-07-17T10:23:24Z</time>
      </trkpt>
      <trkpt lat="48.17524" lon="-2.78223">
        <ele>134.398438</ele>
        <time>2019-07-17T10:23:22Z</time>
      </trkpt>
      <trkpt lat="48.1754" lon="-2.78221">
        <ele>134.597656</ele>
        <time>2019-07-17T10:23:20Z</time>
      </trkpt>
      <trkpt lat="48.17554" lon="-2.78219">
        <ele>135.398438</ele>
        <time>2019-07-17T10:23:18Z</time>
      </trkpt>
      <trkpt lat="48.17567" lon="-2.78221">
        <ele>136.5</ele>
        <time>2019-07-17T10:23:16Z</time>
      </trkpt>
      <trkpt lat="48.17577" lon="-2.78226">
        <ele>137.699219</ele>
        <time>2019-07-17T10:23:14Z</time>
      </trkpt>
      <trkpt lat="48.17587" lon="-2.78237">
        <ele>138.398438</ele>
        <time>2019-07-17T10:23:11Z</time>
      </trkpt>
      <trkpt lat="48.17588" lon="-2.78252">
        <ele>139.097656</ele>
        <time>2019-07-17T10:23:08Z</time>
      </trkpt>
      <trkpt lat="48.17583" lon="-2.78264">
        <ele>139</ele>
        <time>2019-07-17T10:23:05Z</time>
      </trkpt>
      <trkpt lat="48.17577" lon="-2.78275">
        <ele>139.097656</ele>
        <time>2019-07-17T10:23:02Z</time>
      </trkpt>
      <trkpt lat="48.17572" lon="-2.78288">
        <ele>139</ele>
        <time>2019-07-17T10:22:58Z</time>
      </trkpt>
      <trkpt lat="48.17575" lon="-2.78302">
        <ele>139.199219</ele>
        <time>2019-07-17T10:22:53Z</time>
      </trkpt>
      <trkpt lat="48.17583" lon="-2.78312">
        <ele>141.699219</ele>
        <time>2019-07-17T10:22:50Z</time>
      </trkpt>
      <trkpt lat="48.17589" lon="-2.78321">
        <ele>142.398438</ele>
        <time>2019-07-17T10:22:48Z</time>
      </trkpt>
      <trkpt lat="48.17596" lon="-2.78331">
        <ele>143.097656</ele>
        <time>2019-07-17T10:22:46Z</time>
      </trkpt>
      <trkpt lat="48.17602" lon="-2.78342">
        <ele>143.796875</ele>
        <time>2019-07-17T10:22:44Z</time>
      </trkpt>
      <trkpt lat="48.17606" lon="-2.78358">
        <ele>144.5</ele>
        <time>2019-07-17T10:22:41Z</time>
      </trkpt>
      <trkpt lat="48.17605" lon="-2.78392">
        <ele>146.597656</ele>
        <time>2019-07-17T10:22:34Z</time>
      </trkpt>
      <trkpt lat="48.17604" lon="-2.78409">
        <ele>147.699219</ele>
        <time>2019-07-17T10:22:29Z</time>
      </trkpt>
      <trkpt lat="48.17611" lon="-2.78421">
        <ele>147.597656</ele>
        <time>2019-07-17T10:22:24Z</time>
      </trkpt>
      <trkpt lat="48.17616" lon="-2.78409">
        <ele>146.699219</ele>
        <time>2019-07-17T10:22:20Z</time>
      </trkpt>
      <trkpt lat="48.17617" lon="-2.78392">
        <ele>145.898438</ele>
        <time>2019-07-17T10:22:17Z</time>
      </trkpt>
      <trkpt lat="48.17618" lon="-2.78373">
        <ele>145.5</ele>
        <time>2019-07-17T10:22:14Z</time>
      </trkpt>
      <trkpt lat="48.1762" lon="-2.78359">
        <ele>145.398438</ele>
        <time>2019-07-17T10:22:12Z</time>
      </trkpt>
      <trkpt lat="48.17622" lon="-2.78345">
        <ele>144.5</ele>
        <time>2019-07-17T10:22:10Z</time>
      </trkpt>
      <trkpt lat="48.17629" lon="-2.78316">
        <ele>141.898438</ele>
        <time>2019-07-17T10:22:06Z</time>
      </trkpt>
      <trkpt lat="48.17634" lon="-2.783">
        <ele>139.796875</ele>
        <time>2019-07-17T10:22:04Z</time>
      </trkpt>
      <trkpt lat="48.17651" lon="-2.78255">
        <ele>134.296875</ele>
        <time>2019-07-17T10:21:58Z</time>
      </trkpt>
      <trkpt lat="48.17656" lon="-2.78241">
        <ele>133.296875</ele>
        <time>2019-07-17T10:21:56Z</time>
      </trkpt>
      <trkpt lat="48.17673" lon="-2.782">
        <ele>131.898438</ele>
        <time>2019-07-17T10:21:50Z</time>
      </trkpt>
      <trkpt lat="48.17715" lon="-2.78116">
        <ele>136.796875</ele>
        <time>2019-07-17T10:21:36Z</time>
      </trkpt>
      <trkpt lat="48.17832" lon="-2.77907">
        <ele>144.699219</ele>
        <time>2019-07-17T10:20:58Z</time>
      </trkpt>
      <trkpt lat="48.1784" lon="-2.77893">
        <ele>144.398438</ele>
        <time>2019-07-17T10:20:55Z</time>
      </trkpt>
      <trkpt lat="48.17849" lon="-2.77883">
        <ele>143.898438</ele>
        <time>2019-07-17T10:20:52Z</time>
      </trkpt>
      <trkpt lat="48.1786" lon="-2.77885">
        <ele>143.097656</ele>
        <time>2019-07-17T10:20:49Z</time>
      </trkpt>
      <trkpt lat="48.17869" lon="-2.7789">
        <ele>142.5</ele>
        <time>2019-07-17T10:20:47Z</time>
      </trkpt>
      <trkpt lat="48.17878" lon="-2.77894">
        <ele>141.796875</ele>
        <time>2019-07-17T10:20:45Z</time>
      </trkpt>
      <trkpt lat="48.1789" lon="-2.77899">
        <ele>140.898438</ele>
        <time>2019-07-17T10:20:42Z</time>
      </trkpt>
      <trkpt lat="48.179" lon="-2.77908">
        <ele>139.296875</ele>
        <time>2019-07-17T10:20:38Z</time>
      </trkpt>
      <trkpt lat="48.17907" lon="-2.77918">
        <ele>135.398438</ele>
        <time>2019-07-17T10:20:35Z</time>
      </trkpt>
      <trkpt lat="48.17917" lon="-2.77924">
        <ele>133.097656</ele>
        <time>2019-07-17T10:20:32Z</time>
      </trkpt>
      <trkpt lat="48.17928" lon="-2.77917">
        <ele>131.296875</ele>
        <time>2019-07-17T10:20:29Z</time>
      </trkpt>
      <trkpt lat="48.17926" lon="-2.77903">
        <ele>130</ele>
        <time>2019-07-17T10:20:25Z</time>
      </trkpt>
      <trkpt lat="48.17925" lon="-2.77887">
        <ele>131.5</ele>
        <time>2019-07-17T10:20:22Z</time>
      </trkpt>
      <trkpt lat="48.17924" lon="-2.77871">
        <ele>133</ele>
        <time>2019-07-17T10:20:19Z</time>
      </trkpt>
      <trkpt lat="48.17918" lon="-2.77858">
        <ele>135.597656</ele>
        <time>2019-07-17T10:20:16Z</time>
      </trkpt>
      <trkpt lat="48.17912" lon="-2.77846">
        <ele>138.597656</ele>
        <time>2019-07-17T10:20:13Z</time>
      </trkpt>
      <trkpt lat="48.17906" lon="-2.77835">
        <ele>140.097656</ele>
        <time>2019-07-17T10:20:10Z</time>
      </trkpt>
      <trkpt lat="48.17899" lon="-2.77826">
        <ele>141.699219</ele>
        <time>2019-07-17T10:20:07Z</time>
      </trkpt>
      <trkpt lat="48.17893" lon="-2.77812">
        <ele>142.796875</ele>
        <time>2019-07-17T10:20:04Z</time>
      </trkpt>
      <trkpt lat="48.17895" lon="-2.77795">
        <ele>143.5</ele>
        <time>2019-07-17T10:20:01Z</time>
      </trkpt>
      <trkpt lat="48.18068" lon="-2.77485">
        <ele>143.699219</ele>
        <time>2019-07-17T10:19:13Z</time>
      </trkpt>
      <trkpt lat="48.18114" lon="-2.77397">
        <ele>152.898438</ele>
        <time>2019-07-17T10:18:57Z</time>
      </trkpt>
      <trkpt lat="48.18138" lon="-2.77354">
        <ele>155</ele>
        <time>2019-07-17T10:18:49Z</time>
      </trkpt>
      <trkpt lat="48.18239" lon="-2.77165">
        <ele>164.898438</ele>
        <time>2019-07-17T10:18:11Z</time>
      </trkpt>
      <trkpt lat="48.18245" lon="-2.77154">
        <ele>165.097656</ele>
        <time>2019-07-17T10:18:08Z</time>
      </trkpt>
      <trkpt lat="48.18253" lon="-2.77146">
        <ele>166.296875</ele>
        <time>2019-07-17T10:18:02Z</time>
      </trkpt>
      <trkpt lat="48.18266" lon="-2.77243">
        <ele>170.898438</ele>
        <time>2019-07-17T10:17:43Z</time>
      </trkpt>
      <trkpt lat="48.18269" lon="-2.7726">
        <ele>171.699219</ele>
        <time>2019-07-17T10:17:40Z</time>
      </trkpt>
      <trkpt lat="48.18272" lon="-2.77273">
        <ele>172.296875</ele>
        <time>2019-07-17T10:17:37Z</time>
      </trkpt>
      <trkpt lat="48.18277" lon="-2.77289">
        <ele>172.898438</ele>
        <time>2019-07-17T10:17:32Z</time>
      </trkpt>
      <trkpt lat="48.18281" lon="-2.77301">
        <ele>173.398438</ele>
        <time>2019-07-17T10:17:23Z</time>
      </trkpt>
      <trkpt lat="48.18283" lon="-2.77317">
        <ele>174.398438</ele>
        <time>2019-07-17T10:17:15Z</time>
      </trkpt>
      <trkpt lat="48.18274" lon="-2.77323">
        <ele>174.597656</ele>
        <time>2019-07-17T10:17:02Z</time>
      </trkpt>
      <trkpt lat="48.18265" lon="-2.77325">
        <ele>174.398438</ele>
        <time>2019-07-17T10:16:48Z</time>
      </trkpt>
      <trkpt lat="48.18255" lon="-2.77325">
        <ele>174</ele>
        <time>2019-07-17T10:16:31Z</time>
      </trkpt>
      <trkpt lat="48.18246" lon="-2.77323">
        <ele>172.699219</ele>
        <time>2019-07-17T10:16:21Z</time>
      </trkpt>
      <trkpt lat="48.18238" lon="-2.77331">
        <ele>168.871094</ele>
        <time>2019-07-17T10:06:58Z</time>
      </trkpt>
      <trkpt lat="48.18238" lon="-2.77331">
        <ele>168.871094</ele>
        <time>2019-07-17T10:06:58Z</time>
      </trkpt>
    </trkseg>
  </trk>
</gpx>